<?xml version="1.0" encoding="UTF-8" standalone="no" ?>
<gpx xmlns="http://www.topografix.com/GPX/1/1" xmlns:xsi="http://www.w3.org/2001/XMLSchema-instance" xsi:schemaLocation="http://www.topografix.com/GPX/1/1 http://www.topografix.com/GPX/1/1/gpx.xsd" version="1.1" creator="VisuGPX - https://www.visugpx.com">
  <metadata>
    <name>Tracé actuel: 17 JUIL 2013 08:05</name>
  </metadata>
  <trk>
    <name><![CDATA[Tracé actuel: 17 JUIL 2013 08:05]]></name>
    <trkseg>
      <trkpt lat="48.37779" lon="2.79981">
        <ele>43.4</ele>
        <time>2013-07-17T06:05:17Z</time>
      </trkpt>
      <trkpt lat="48.37759" lon="2.80017">
        <ele>48.68</ele>
        <time>2013-07-17T06:05:27Z</time>
      </trkpt>
      <trkpt lat="48.37761" lon="2.8001">
        <ele>50.13</ele>
        <time>2013-07-17T06:05:30Z</time>
      </trkpt>
      <trkpt lat="48.37775" lon="2.79981">
        <ele>58.78</ele>
        <time>2013-07-17T06:05:46Z</time>
      </trkpt>
      <trkpt lat="48.37791" lon="2.79963">
        <ele>65.03</ele>
        <time>2013-07-17T06:06:01Z</time>
      </trkpt>
      <trkpt lat="48.37798" lon="2.79959">
        <ele>68.87</ele>
        <time>2013-07-17T06:06:07Z</time>
      </trkpt>
      <trkpt lat="48.37807" lon="2.79962">
        <ele>72.72</ele>
        <time>2013-07-17T06:06:17Z</time>
      </trkpt>
      <trkpt lat="48.37814" lon="2.79979">
        <ele>74.16</ele>
        <time>2013-07-17T06:06:31Z</time>
      </trkpt>
      <trkpt lat="48.37819" lon="2.79995">
        <ele>74.64</ele>
        <time>2013-07-17T06:06:42Z</time>
      </trkpt>
      <trkpt lat="48.37822" lon="2.80009">
        <ele>74.16</ele>
        <time>2013-07-17T06:06:54Z</time>
      </trkpt>
      <trkpt lat="48.3782" lon="2.80016">
        <ele>73.68</ele>
        <time>2013-07-17T06:06:58Z</time>
      </trkpt>
      <trkpt lat="48.37829" lon="2.80035">
        <ele>87.62</ele>
        <time>2013-07-17T06:07:10Z</time>
      </trkpt>
      <trkpt lat="48.37828" lon="2.80058">
        <ele>87.62</ele>
        <time>2013-07-17T06:07:24Z</time>
      </trkpt>
      <trkpt lat="48.37827" lon="2.80066">
        <ele>85.69</ele>
        <time>2013-07-17T06:07:27Z</time>
      </trkpt>
      <trkpt lat="48.37829" lon="2.8009">
        <ele>79.93</ele>
        <time>2013-07-17T06:07:40Z</time>
      </trkpt>
      <trkpt lat="48.37829" lon="2.8009">
        <ele>80.41</ele>
        <time>2013-07-17T06:07:47Z</time>
      </trkpt>
      <trkpt lat="48.37829" lon="2.80082">
        <ele>80.41</ele>
        <time>2013-07-17T06:07:52Z</time>
      </trkpt>
      <trkpt lat="48.37827" lon="2.80064">
        <ele>79.45</ele>
        <time>2013-07-17T06:08:07Z</time>
      </trkpt>
      <trkpt lat="48.37825" lon="2.80044">
        <ele>78</ele>
        <time>2013-07-17T06:08:23Z</time>
      </trkpt>
      <trkpt lat="48.37826" lon="2.80018">
        <ele>75.6</ele>
        <time>2013-07-17T06:08:40Z</time>
      </trkpt>
      <trkpt lat="48.37833" lon="2.79986">
        <ele>74.16</ele>
        <time>2013-07-17T06:08:56Z</time>
      </trkpt>
      <trkpt lat="48.37843" lon="2.79958">
        <ele>76.56</ele>
        <time>2013-07-17T06:09:09Z</time>
      </trkpt>
      <trkpt lat="48.37847" lon="2.79946">
        <ele>77.04</ele>
        <time>2013-07-17T06:09:15Z</time>
      </trkpt>
      <trkpt lat="48.37851" lon="2.79927">
        <ele>76.08</ele>
        <time>2013-07-17T06:09:30Z</time>
      </trkpt>
      <trkpt lat="48.37857" lon="2.79929">
        <ele>76.08</ele>
        <time>2013-07-17T06:10:00Z</time>
      </trkpt>
      <trkpt lat="48.37858" lon="2.79922">
        <ele>76.56</ele>
        <time>2013-07-17T06:10:07Z</time>
      </trkpt>
      <trkpt lat="48.37861" lon="2.79901">
        <ele>77.04</ele>
        <time>2013-07-17T06:10:15Z</time>
      </trkpt>
      <trkpt lat="48.37863" lon="2.79899">
        <ele>77.04</ele>
        <time>2013-07-17T06:10:17Z</time>
      </trkpt>
      <trkpt lat="48.37877" lon="2.79868">
        <ele>74.64</ele>
        <time>2013-07-17T06:10:33Z</time>
      </trkpt>
      <trkpt lat="48.3789" lon="2.79838">
        <ele>75.12</ele>
        <time>2013-07-17T06:10:49Z</time>
      </trkpt>
      <trkpt lat="48.37897" lon="2.79821">
        <ele>73.68</ele>
        <time>2013-07-17T06:10:57Z</time>
      </trkpt>
      <trkpt lat="48.37899" lon="2.79809">
        <ele>71.76</ele>
        <time>2013-07-17T06:11:04Z</time>
      </trkpt>
      <trkpt lat="48.37903" lon="2.79785">
        <ele>70.31</ele>
        <time>2013-07-17T06:11:22Z</time>
      </trkpt>
      <trkpt lat="48.37907" lon="2.79766">
        <ele>71.27</ele>
        <time>2013-07-17T06:11:34Z</time>
      </trkpt>
      <trkpt lat="48.37916" lon="2.7974">
        <ele>69.35</ele>
        <time>2013-07-17T06:11:50Z</time>
      </trkpt>
      <trkpt lat="48.37927" lon="2.79723">
        <ele>69.35</ele>
        <time>2013-07-17T06:12:01Z</time>
      </trkpt>
      <trkpt lat="48.37936" lon="2.79725">
        <ele>73.68</ele>
        <time>2013-07-17T06:12:13Z</time>
      </trkpt>
      <trkpt lat="48.37945" lon="2.79742">
        <ele>73.2</ele>
        <time>2013-07-17T06:12:24Z</time>
      </trkpt>
      <trkpt lat="48.37957" lon="2.79763">
        <ele>71.76</ele>
        <time>2013-07-17T06:12:38Z</time>
      </trkpt>
      <trkpt lat="48.37969" lon="2.79788">
        <ele>68.87</ele>
        <time>2013-07-17T06:12:56Z</time>
      </trkpt>
      <trkpt lat="48.3798" lon="2.798">
        <ele>66.47</ele>
        <time>2013-07-17T06:13:10Z</time>
      </trkpt>
      <trkpt lat="48.37992" lon="2.79804">
        <ele>65.51</ele>
        <time>2013-07-17T06:13:25Z</time>
      </trkpt>
      <trkpt lat="48.37995" lon="2.79803">
        <ele>65.03</ele>
        <time>2013-07-17T06:13:28Z</time>
      </trkpt>
      <trkpt lat="48.38014" lon="2.79797">
        <ele>63.1</ele>
        <time>2013-07-17T06:13:44Z</time>
      </trkpt>
      <trkpt lat="48.38016" lon="2.79796">
        <ele>62.62</ele>
        <time>2013-07-17T06:13:46Z</time>
      </trkpt>
      <trkpt lat="48.38021" lon="2.79798">
        <ele>61.18</ele>
        <time>2013-07-17T06:13:50Z</time>
      </trkpt>
      <trkpt lat="48.38035" lon="2.79816">
        <ele>56.86</ele>
        <time>2013-07-17T06:14:05Z</time>
      </trkpt>
      <trkpt lat="48.38049" lon="2.79844">
        <ele>53.49</ele>
        <time>2013-07-17T06:14:18Z</time>
      </trkpt>
      <trkpt lat="48.38059" lon="2.79855">
        <ele>51.57</ele>
        <time>2013-07-17T06:14:31Z</time>
      </trkpt>
      <trkpt lat="48.38078" lon="2.79887">
        <ele>50.61</ele>
        <time>2013-07-17T06:14:47Z</time>
      </trkpt>
      <trkpt lat="48.38081" lon="2.79892">
        <ele>50.61</ele>
        <time>2013-07-17T06:14:51Z</time>
      </trkpt>
      <trkpt lat="48.3809" lon="2.79905">
        <ele>51.09</ele>
        <time>2013-07-17T06:14:59Z</time>
      </trkpt>
      <trkpt lat="48.38098" lon="2.79912">
        <ele>49.65</ele>
        <time>2013-07-17T06:18:31Z</time>
      </trkpt>
      <trkpt lat="48.38084" lon="2.79934">
        <ele>49.65</ele>
        <time>2013-07-17T06:18:41Z</time>
      </trkpt>
      <trkpt lat="48.3807" lon="2.79959">
        <ele>49.65</ele>
        <time>2013-07-17T06:18:52Z</time>
      </trkpt>
      <trkpt lat="48.38065" lon="2.79979">
        <ele>50.13</ele>
        <time>2013-07-17T06:19:05Z</time>
      </trkpt>
      <trkpt lat="48.38065" lon="2.79983">
        <ele>50.61</ele>
        <time>2013-07-17T06:19:08Z</time>
      </trkpt>
      <trkpt lat="48.38047" lon="2.80013">
        <ele>50.13</ele>
        <time>2013-07-17T06:19:24Z</time>
      </trkpt>
      <trkpt lat="48.38025" lon="2.8004">
        <ele>53.01</ele>
        <time>2013-07-17T06:19:40Z</time>
      </trkpt>
      <trkpt lat="48.3801" lon="2.80063">
        <ele>52.53</ele>
        <time>2013-07-17T06:19:53Z</time>
      </trkpt>
      <trkpt lat="48.37994" lon="2.80089">
        <ele>52.05</ele>
        <time>2013-07-17T06:20:07Z</time>
      </trkpt>
      <trkpt lat="48.37988" lon="2.80101">
        <ele>52.53</ele>
        <time>2013-07-17T06:20:15Z</time>
      </trkpt>
      <trkpt lat="48.37987" lon="2.80117">
        <ele>55.41</ele>
        <time>2013-07-17T06:20:28Z</time>
      </trkpt>
      <trkpt lat="48.37982" lon="2.80135">
        <ele>58.3</ele>
        <time>2013-07-17T06:20:42Z</time>
      </trkpt>
      <trkpt lat="48.37977" lon="2.80156">
        <ele>59.26</ele>
        <time>2013-07-17T06:20:53Z</time>
      </trkpt>
      <trkpt lat="48.37969" lon="2.80162">
        <ele>59.26</ele>
        <time>2013-07-17T06:20:58Z</time>
      </trkpt>
      <trkpt lat="48.37966" lon="2.80171">
        <ele>59.26</ele>
        <time>2013-07-17T06:21:02Z</time>
      </trkpt>
      <trkpt lat="48.37943" lon="2.80205">
        <ele>55.41</ele>
        <time>2013-07-17T06:21:19Z</time>
      </trkpt>
      <trkpt lat="48.37928" lon="2.80231">
        <ele>53.97</ele>
        <time>2013-07-17T06:21:34Z</time>
      </trkpt>
      <trkpt lat="48.37909" lon="2.80262">
        <ele>53.49</ele>
        <time>2013-07-17T06:21:51Z</time>
      </trkpt>
      <trkpt lat="48.3789" lon="2.8029">
        <ele>51.09</ele>
        <time>2013-07-17T06:22:06Z</time>
      </trkpt>
      <trkpt lat="48.37877" lon="2.8031">
        <ele>50.13</ele>
        <time>2013-07-17T06:22:19Z</time>
      </trkpt>
      <trkpt lat="48.3787" lon="2.80322">
        <ele>49.16</ele>
        <time>2013-07-17T06:22:30Z</time>
      </trkpt>
      <trkpt lat="48.37861" lon="2.80341">
        <ele>49.65</ele>
        <time>2013-07-17T06:22:48Z</time>
      </trkpt>
      <trkpt lat="48.37858" lon="2.80346">
        <ele>49.65</ele>
        <time>2013-07-17T06:22:54Z</time>
      </trkpt>
      <trkpt lat="48.37849" lon="2.80374">
        <ele>48.68</ele>
        <time>2013-07-17T06:23:11Z</time>
      </trkpt>
      <trkpt lat="48.37844" lon="2.80395">
        <ele>49.65</ele>
        <time>2013-07-17T06:23:26Z</time>
      </trkpt>
      <trkpt lat="48.37839" lon="2.804">
        <ele>49.65</ele>
        <time>2013-07-17T06:23:33Z</time>
      </trkpt>
      <trkpt lat="48.37837" lon="2.80405">
        <ele>49.65</ele>
        <time>2013-07-17T06:23:42Z</time>
      </trkpt>
      <trkpt lat="48.3784" lon="2.80437">
        <ele>49.65</ele>
        <time>2013-07-17T06:23:54Z</time>
      </trkpt>
      <trkpt lat="48.37843" lon="2.80447">
        <ele>49.16</ele>
        <time>2013-07-17T06:24:01Z</time>
      </trkpt>
      <trkpt lat="48.37846" lon="2.80456">
        <ele>49.65</ele>
        <time>2013-07-17T06:24:06Z</time>
      </trkpt>
      <trkpt lat="48.37849" lon="2.80491">
        <ele>50.61</ele>
        <time>2013-07-17T06:24:23Z</time>
      </trkpt>
      <trkpt lat="48.37852" lon="2.80525">
        <ele>49.65</ele>
        <time>2013-07-17T06:24:37Z</time>
      </trkpt>
      <trkpt lat="48.37856" lon="2.80554">
        <ele>49.65</ele>
        <time>2013-07-17T06:24:51Z</time>
      </trkpt>
      <trkpt lat="48.37856" lon="2.80575">
        <ele>48.2</ele>
        <time>2013-07-17T06:25:03Z</time>
      </trkpt>
      <trkpt lat="48.37859" lon="2.80609">
        <ele>48.68</ele>
        <time>2013-07-17T06:25:17Z</time>
      </trkpt>
      <trkpt lat="48.37864" lon="2.80641">
        <ele>50.13</ele>
        <time>2013-07-17T06:25:32Z</time>
      </trkpt>
      <trkpt lat="48.37868" lon="2.80661">
        <ele>50.61</ele>
        <time>2013-07-17T06:25:45Z</time>
      </trkpt>
      <trkpt lat="48.37871" lon="2.80694">
        <ele>51.09</ele>
        <time>2013-07-17T06:25:58Z</time>
      </trkpt>
      <trkpt lat="48.37876" lon="2.80723">
        <ele>51.09</ele>
        <time>2013-07-17T06:26:12Z</time>
      </trkpt>
      <trkpt lat="48.37882" lon="2.80749">
        <ele>51.57</ele>
        <time>2013-07-17T06:26:26Z</time>
      </trkpt>
      <trkpt lat="48.37883" lon="2.8078">
        <ele>51.57</ele>
        <time>2013-07-17T06:26:42Z</time>
      </trkpt>
      <trkpt lat="48.37883" lon="2.80809">
        <ele>50.61</ele>
        <time>2013-07-17T06:26:53Z</time>
      </trkpt>
      <trkpt lat="48.37886" lon="2.80828">
        <ele>49.65</ele>
        <time>2013-07-17T06:27:05Z</time>
      </trkpt>
      <trkpt lat="48.37886" lon="2.80847">
        <ele>48.2</ele>
        <time>2013-07-17T06:27:17Z</time>
      </trkpt>
      <trkpt lat="48.3789" lon="2.80881">
        <ele>45.32</ele>
        <time>2013-07-17T06:27:31Z</time>
      </trkpt>
      <trkpt lat="48.37898" lon="2.80904">
        <ele>42.92</ele>
        <time>2013-07-17T06:27:43Z</time>
      </trkpt>
      <trkpt lat="48.37905" lon="2.80923">
        <ele>43.88</ele>
        <time>2013-07-17T06:27:55Z</time>
      </trkpt>
      <trkpt lat="48.37915" lon="2.80949">
        <ele>44.84</ele>
        <time>2013-07-17T06:28:07Z</time>
      </trkpt>
      <trkpt lat="48.37924" lon="2.80971">
        <ele>45.8</ele>
        <time>2013-07-17T06:28:19Z</time>
      </trkpt>
      <trkpt lat="48.37926" lon="2.80978">
        <ele>45.8</ele>
        <time>2013-07-17T06:28:22Z</time>
      </trkpt>
      <trkpt lat="48.37929" lon="2.80981">
        <ele>45.8</ele>
        <time>2013-07-17T06:28:26Z</time>
      </trkpt>
      <trkpt lat="48.37934" lon="2.80988">
        <ele>46.28</ele>
        <time>2013-07-17T06:28:31Z</time>
      </trkpt>
      <trkpt lat="48.3794" lon="2.8101">
        <ele>47.24</ele>
        <time>2013-07-17T06:28:39Z</time>
      </trkpt>
      <trkpt lat="48.37943" lon="2.81014">
        <ele>47.72</ele>
        <time>2013-07-17T06:28:43Z</time>
      </trkpt>
      <trkpt lat="48.37947" lon="2.81047">
        <ele>46.28</ele>
        <time>2013-07-17T06:28:57Z</time>
      </trkpt>
      <trkpt lat="48.37947" lon="2.81049">
        <ele>46.28</ele>
        <time>2013-07-17T06:28:58Z</time>
      </trkpt>
      <trkpt lat="48.37953" lon="2.81058">
        <ele>46.76</ele>
        <time>2013-07-17T06:29:06Z</time>
      </trkpt>
      <trkpt lat="48.37957" lon="2.81065">
        <ele>47.24</ele>
        <time>2013-07-17T06:29:11Z</time>
      </trkpt>
      <trkpt lat="48.37965" lon="2.81092">
        <ele>46.76</ele>
        <time>2013-07-17T06:29:23Z</time>
      </trkpt>
      <trkpt lat="48.37971" lon="2.81098">
        <ele>47.72</ele>
        <time>2013-07-17T06:29:29Z</time>
      </trkpt>
      <trkpt lat="48.3798" lon="2.81127">
        <ele>46.76</ele>
        <time>2013-07-17T06:29:43Z</time>
      </trkpt>
      <trkpt lat="48.37985" lon="2.8113">
        <ele>47.72</ele>
        <time>2013-07-17T06:29:47Z</time>
      </trkpt>
      <trkpt lat="48.37992" lon="2.81161">
        <ele>46.76</ele>
        <time>2013-07-17T06:30:01Z</time>
      </trkpt>
      <trkpt lat="48.37996" lon="2.81163">
        <ele>46.76</ele>
        <time>2013-07-17T06:30:05Z</time>
      </trkpt>
      <trkpt lat="48.38" lon="2.81166">
        <ele>47.24</ele>
        <time>2013-07-17T06:30:09Z</time>
      </trkpt>
      <trkpt lat="48.38012" lon="2.81181">
        <ele>48.2</ele>
        <time>2013-07-17T06:30:20Z</time>
      </trkpt>
      <trkpt lat="48.38019" lon="2.81204">
        <ele>52.53</ele>
        <time>2013-07-17T06:30:36Z</time>
      </trkpt>
      <trkpt lat="48.38019" lon="2.81206">
        <ele>52.53</ele>
        <time>2013-07-17T06:30:37Z</time>
      </trkpt>
      <trkpt lat="48.38018" lon="2.81219">
        <ele>52.53</ele>
        <time>2013-07-17T06:31:00Z</time>
      </trkpt>
      <trkpt lat="48.38017" lon="2.81222">
        <ele>52.53</ele>
        <time>2013-07-17T06:31:04Z</time>
      </trkpt>
      <trkpt lat="48.3801" lon="2.81253">
        <ele>52.53</ele>
        <time>2013-07-17T06:31:25Z</time>
      </trkpt>
      <trkpt lat="48.37997" lon="2.81286">
        <ele>52.53</ele>
        <time>2013-07-17T06:31:43Z</time>
      </trkpt>
      <trkpt lat="48.37982" lon="2.81318">
        <ele>54.93</ele>
        <time>2013-07-17T06:32:03Z</time>
      </trkpt>
      <trkpt lat="48.37971" lon="2.81341">
        <ele>55.89</ele>
        <time>2013-07-17T06:32:24Z</time>
      </trkpt>
      <trkpt lat="48.37967" lon="2.81357">
        <ele>55.41</ele>
        <time>2013-07-17T06:32:35Z</time>
      </trkpt>
      <trkpt lat="48.37965" lon="2.81365">
        <ele>55.41</ele>
        <time>2013-07-17T06:32:40Z</time>
      </trkpt>
      <trkpt lat="48.37964" lon="2.81375">
        <ele>55.89</ele>
        <time>2013-07-17T06:32:45Z</time>
      </trkpt>
      <trkpt lat="48.37955" lon="2.81404">
        <ele>55.41</ele>
        <time>2013-07-17T06:33:00Z</time>
      </trkpt>
      <trkpt lat="48.37945" lon="2.81428">
        <ele>53.49</ele>
        <time>2013-07-17T06:33:13Z</time>
      </trkpt>
      <trkpt lat="48.37927" lon="2.81461">
        <ele>51.57</ele>
        <time>2013-07-17T06:33:32Z</time>
      </trkpt>
      <trkpt lat="48.37913" lon="2.81496">
        <ele>51.09</ele>
        <time>2013-07-17T06:33:52Z</time>
      </trkpt>
      <trkpt lat="48.37901" lon="2.81529">
        <ele>52.53</ele>
        <time>2013-07-17T06:34:11Z</time>
      </trkpt>
      <trkpt lat="48.37887" lon="2.81565">
        <ele>52.05</ele>
        <time>2013-07-17T06:34:30Z</time>
      </trkpt>
      <trkpt lat="48.37871" lon="2.81599">
        <ele>53.01</ele>
        <time>2013-07-17T06:34:50Z</time>
      </trkpt>
      <trkpt lat="48.37863" lon="2.81624">
        <ele>54.45</ele>
        <time>2013-07-17T06:35:03Z</time>
      </trkpt>
      <trkpt lat="48.37853" lon="2.81642">
        <ele>56.37</ele>
        <time>2013-07-17T06:35:12Z</time>
      </trkpt>
      <trkpt lat="48.3785" lon="2.81658">
        <ele>56.37</ele>
        <time>2013-07-17T06:35:24Z</time>
      </trkpt>
      <trkpt lat="48.3785" lon="2.81675">
        <ele>56.37</ele>
        <time>2013-07-17T06:35:45Z</time>
      </trkpt>
      <trkpt lat="48.37845" lon="2.81681">
        <ele>56.37</ele>
        <time>2013-07-17T06:35:48Z</time>
      </trkpt>
      <trkpt lat="48.37836" lon="2.81698">
        <ele>56.37</ele>
        <time>2013-07-17T06:35:56Z</time>
      </trkpt>
      <trkpt lat="48.37824" lon="2.81719">
        <ele>54.93</ele>
        <time>2013-07-17T06:36:10Z</time>
      </trkpt>
      <trkpt lat="48.37805" lon="2.81739">
        <ele>53.97</ele>
        <time>2013-07-17T06:36:23Z</time>
      </trkpt>
      <trkpt lat="48.37794" lon="2.81758">
        <ele>53.01</ele>
        <time>2013-07-17T06:36:42Z</time>
      </trkpt>
      <trkpt lat="48.37783" lon="2.81772">
        <ele>52.53</ele>
        <time>2013-07-17T06:37:02Z</time>
      </trkpt>
      <trkpt lat="48.37766" lon="2.81789">
        <ele>53.01</ele>
        <time>2013-07-17T06:37:13Z</time>
      </trkpt>
      <trkpt lat="48.37761" lon="2.81797">
        <ele>53.01</ele>
        <time>2013-07-17T06:37:19Z</time>
      </trkpt>
      <trkpt lat="48.37752" lon="2.81802">
        <ele>53.01</ele>
        <time>2013-07-17T06:37:25Z</time>
      </trkpt>
      <trkpt lat="48.37725" lon="2.8182">
        <ele>53.49</ele>
        <time>2013-07-17T06:37:46Z</time>
      </trkpt>
      <trkpt lat="48.37708" lon="2.8183">
        <ele>54.45</ele>
        <time>2013-07-17T06:37:58Z</time>
      </trkpt>
      <trkpt lat="48.37697" lon="2.81841">
        <ele>54.45</ele>
        <time>2013-07-17T06:38:11Z</time>
      </trkpt>
      <trkpt lat="48.37673" lon="2.81852">
        <ele>53.97</ele>
        <time>2013-07-17T06:38:30Z</time>
      </trkpt>
      <trkpt lat="48.37649" lon="2.81866">
        <ele>53.49</ele>
        <time>2013-07-17T06:38:51Z</time>
      </trkpt>
      <trkpt lat="48.37627" lon="2.81865">
        <ele>53.49</ele>
        <time>2013-07-17T06:39:09Z</time>
      </trkpt>
      <trkpt lat="48.37603" lon="2.81869">
        <ele>53.49</ele>
        <time>2013-07-17T06:39:27Z</time>
      </trkpt>
      <trkpt lat="48.37579" lon="2.81867">
        <ele>53.49</ele>
        <time>2013-07-17T06:39:45Z</time>
      </trkpt>
      <trkpt lat="48.37571" lon="2.81867">
        <ele>53.49</ele>
        <time>2013-07-17T06:39:52Z</time>
      </trkpt>
      <trkpt lat="48.37563" lon="2.81864">
        <ele>54.45</ele>
        <time>2013-07-17T06:40:00Z</time>
      </trkpt>
      <trkpt lat="48.37538" lon="2.81863">
        <ele>54.93</ele>
        <time>2013-07-17T06:40:18Z</time>
      </trkpt>
      <trkpt lat="48.37513" lon="2.81865">
        <ele>54.45</ele>
        <time>2013-07-17T06:40:35Z</time>
      </trkpt>
      <trkpt lat="48.37504" lon="2.81867">
        <ele>54.45</ele>
        <time>2013-07-17T06:40:42Z</time>
      </trkpt>
      <trkpt lat="48.37491" lon="2.81866">
        <ele>54.93</ele>
        <time>2013-07-17T06:40:57Z</time>
      </trkpt>
      <trkpt lat="48.37489" lon="2.81863">
        <ele>54.45</ele>
        <time>2013-07-17T06:41:00Z</time>
      </trkpt>
      <trkpt lat="48.3748" lon="2.81868">
        <ele>54.93</ele>
        <time>2013-07-17T06:41:10Z</time>
      </trkpt>
      <trkpt lat="48.37468" lon="2.81873">
        <ele>53.49</ele>
        <time>2013-07-17T06:41:23Z</time>
      </trkpt>
      <trkpt lat="48.37452" lon="2.81875">
        <ele>53.01</ele>
        <time>2013-07-17T06:41:38Z</time>
      </trkpt>
      <trkpt lat="48.37433" lon="2.81878">
        <ele>52.53</ele>
        <time>2013-07-17T06:41:55Z</time>
      </trkpt>
      <trkpt lat="48.37422" lon="2.81883">
        <ele>52.05</ele>
        <time>2013-07-17T06:42:05Z</time>
      </trkpt>
      <trkpt lat="48.37404" lon="2.81889">
        <ele>51.57</ele>
        <time>2013-07-17T06:42:19Z</time>
      </trkpt>
      <trkpt lat="48.37399" lon="2.81891">
        <ele>51.57</ele>
        <time>2013-07-17T06:42:23Z</time>
      </trkpt>
      <trkpt lat="48.37392" lon="2.81896">
        <ele>51.09</ele>
        <time>2013-07-17T06:42:31Z</time>
      </trkpt>
      <trkpt lat="48.37364" lon="2.819">
        <ele>51.57</ele>
        <time>2013-07-17T06:42:49Z</time>
      </trkpt>
      <trkpt lat="48.37334" lon="2.81908">
        <ele>51.09</ele>
        <time>2013-07-17T06:43:10Z</time>
      </trkpt>
      <trkpt lat="48.3731" lon="2.81907">
        <ele>51.09</ele>
        <time>2013-07-17T06:43:29Z</time>
      </trkpt>
      <trkpt lat="48.37289" lon="2.81883">
        <ele>51.57</ele>
        <time>2013-07-17T06:43:56Z</time>
      </trkpt>
      <trkpt lat="48.37286" lon="2.81879">
        <ele>51.57</ele>
        <time>2013-07-17T06:44:16Z</time>
      </trkpt>
      <trkpt lat="48.37288" lon="2.81856">
        <ele>51.57</ele>
        <time>2013-07-17T06:44:29Z</time>
      </trkpt>
      <trkpt lat="48.37276" lon="2.81843">
        <ele>51.57</ele>
        <time>2013-07-17T06:44:44Z</time>
      </trkpt>
      <trkpt lat="48.37272" lon="2.81856">
        <ele>51.57</ele>
        <time>2013-07-17T06:44:56Z</time>
      </trkpt>
      <trkpt lat="48.37264" lon="2.81889">
        <ele>52.05</ele>
        <time>2013-07-17T06:45:13Z</time>
      </trkpt>
      <trkpt lat="48.37257" lon="2.81914">
        <ele>54.45</ele>
        <time>2013-07-17T06:45:30Z</time>
      </trkpt>
      <trkpt lat="48.3725" lon="2.81953">
        <ele>57.82</ele>
        <time>2013-07-17T06:45:49Z</time>
      </trkpt>
      <trkpt lat="48.37252" lon="2.81963">
        <ele>59.74</ele>
        <time>2013-07-17T06:46:06Z</time>
      </trkpt>
      <trkpt lat="48.37245" lon="2.82007">
        <ele>58.78</ele>
        <time>2013-07-17T06:46:40Z</time>
      </trkpt>
      <trkpt lat="48.37246" lon="2.82018">
        <ele>57.34</ele>
        <time>2013-07-17T06:46:55Z</time>
      </trkpt>
      <trkpt lat="48.37246" lon="2.82041">
        <ele>58.78</ele>
        <time>2013-07-17T06:47:08Z</time>
      </trkpt>
      <trkpt lat="48.37245" lon="2.82038">
        <ele>59.74</ele>
        <time>2013-07-17T06:47:25Z</time>
      </trkpt>
      <trkpt lat="48.37244" lon="2.82033">
        <ele>60.22</ele>
        <time>2013-07-17T06:47:40Z</time>
      </trkpt>
      <trkpt lat="48.37245" lon="2.82007">
        <ele>61.66</ele>
        <time>2013-07-17T06:47:56Z</time>
      </trkpt>
      <trkpt lat="48.37246" lon="2.81977">
        <ele>60.7</ele>
        <time>2013-07-17T06:48:13Z</time>
      </trkpt>
      <trkpt lat="48.37257" lon="2.81949">
        <ele>61.18</ele>
        <time>2013-07-17T06:48:32Z</time>
      </trkpt>
      <trkpt lat="48.37255" lon="2.8195">
        <ele>61.18</ele>
        <time>2013-07-17T06:48:41Z</time>
      </trkpt>
      <trkpt lat="48.37255" lon="2.81939">
        <ele>60.22</ele>
        <time>2013-07-17T06:48:46Z</time>
      </trkpt>
      <trkpt lat="48.37254" lon="2.81904">
        <ele>56.86</ele>
        <time>2013-07-17T06:49:06Z</time>
      </trkpt>
      <trkpt lat="48.37264" lon="2.81862">
        <ele>57.34</ele>
        <time>2013-07-17T06:49:31Z</time>
      </trkpt>
      <trkpt lat="48.37264" lon="2.8186">
        <ele>57.34</ele>
        <time>2013-07-17T06:49:32Z</time>
      </trkpt>
      <trkpt lat="48.37234" lon="2.81846">
        <ele>57.34</ele>
        <time>2013-07-17T06:49:49Z</time>
      </trkpt>
      <trkpt lat="48.37216" lon="2.81845">
        <ele>57.82</ele>
        <time>2013-07-17T06:50:04Z</time>
      </trkpt>
      <trkpt lat="48.37213" lon="2.81852">
        <ele>57.34</ele>
        <time>2013-07-17T06:50:09Z</time>
      </trkpt>
      <trkpt lat="48.37205" lon="2.81837">
        <ele>56.86</ele>
        <time>2013-07-17T06:50:29Z</time>
      </trkpt>
      <trkpt lat="48.372" lon="2.81834">
        <ele>56.86</ele>
        <time>2013-07-17T06:50:47Z</time>
      </trkpt>
      <trkpt lat="48.37194" lon="2.8183">
        <ele>56.86</ele>
        <time>2013-07-17T06:50:56Z</time>
      </trkpt>
      <trkpt lat="48.37177" lon="2.81819">
        <ele>56.37</ele>
        <time>2013-07-17T06:51:11Z</time>
      </trkpt>
      <trkpt lat="48.37176" lon="2.81822">
        <ele>56.37</ele>
        <time>2013-07-17T06:51:18Z</time>
      </trkpt>
      <trkpt lat="48.37163" lon="2.8185">
        <ele>56.86</ele>
        <time>2013-07-17T06:51:34Z</time>
      </trkpt>
      <trkpt lat="48.37143" lon="2.81866">
        <ele>56.86</ele>
        <time>2013-07-17T06:51:53Z</time>
      </trkpt>
      <trkpt lat="48.37139" lon="2.81867">
        <ele>57.34</ele>
        <time>2013-07-17T06:51:57Z</time>
      </trkpt>
      <trkpt lat="48.37107" lon="2.81866">
        <ele>58.78</ele>
        <time>2013-07-17T06:52:17Z</time>
      </trkpt>
      <trkpt lat="48.37089" lon="2.81865">
        <ele>58.78</ele>
        <time>2013-07-17T06:52:35Z</time>
      </trkpt>
      <trkpt lat="48.37083" lon="2.81865">
        <ele>60.22</ele>
        <time>2013-07-17T06:52:51Z</time>
      </trkpt>
      <trkpt lat="48.37078" lon="2.81869">
        <ele>60.22</ele>
        <time>2013-07-17T06:52:58Z</time>
      </trkpt>
      <trkpt lat="48.37067" lon="2.81877">
        <ele>60.22</ele>
        <time>2013-07-17T06:53:14Z</time>
      </trkpt>
      <trkpt lat="48.3706" lon="2.81878">
        <ele>60.22</ele>
        <time>2013-07-17T06:53:18Z</time>
      </trkpt>
      <trkpt lat="48.37052" lon="2.81877">
        <ele>60.22</ele>
        <time>2013-07-17T06:53:22Z</time>
      </trkpt>
      <trkpt lat="48.37034" lon="2.81894">
        <ele>58.3</ele>
        <time>2013-07-17T06:53:36Z</time>
      </trkpt>
      <trkpt lat="48.37015" lon="2.81905">
        <ele>57.34</ele>
        <time>2013-07-17T06:53:50Z</time>
      </trkpt>
      <trkpt lat="48.37004" lon="2.81907">
        <ele>57.82</ele>
        <time>2013-07-17T06:53:55Z</time>
      </trkpt>
      <trkpt lat="48.36994" lon="2.8189">
        <ele>57.82</ele>
        <time>2013-07-17T06:54:05Z</time>
      </trkpt>
      <trkpt lat="48.36995" lon="2.81878">
        <ele>57.82</ele>
        <time>2013-07-17T06:54:10Z</time>
      </trkpt>
      <trkpt lat="48.36992" lon="2.81854">
        <ele>54.93</ele>
        <time>2013-07-17T06:54:28Z</time>
      </trkpt>
      <trkpt lat="48.36989" lon="2.81835">
        <ele>56.37</ele>
        <time>2013-07-17T06:54:40Z</time>
      </trkpt>
      <trkpt lat="48.36995" lon="2.81814">
        <ele>58.78</ele>
        <time>2013-07-17T06:54:51Z</time>
      </trkpt>
      <trkpt lat="48.36996" lon="2.81792">
        <ele>60.22</ele>
        <time>2013-07-17T06:54:59Z</time>
      </trkpt>
      <trkpt lat="48.3699" lon="2.81789">
        <ele>60.22</ele>
        <time>2013-07-17T06:55:03Z</time>
      </trkpt>
      <trkpt lat="48.36974" lon="2.81804">
        <ele>61.66</ele>
        <time>2013-07-17T06:55:14Z</time>
      </trkpt>
      <trkpt lat="48.36966" lon="2.81817">
        <ele>64.07</ele>
        <time>2013-07-17T06:55:27Z</time>
      </trkpt>
      <trkpt lat="48.36965" lon="2.81819">
        <ele>64.07</ele>
        <time>2013-07-17T06:55:28Z</time>
      </trkpt>
      <trkpt lat="48.36964" lon="2.81822">
        <ele>64.07</ele>
        <time>2013-07-17T06:55:30Z</time>
      </trkpt>
      <trkpt lat="48.36948" lon="2.81843">
        <ele>63.1</ele>
        <time>2013-07-17T06:55:43Z</time>
      </trkpt>
      <trkpt lat="48.36942" lon="2.81855">
        <ele>62.62</ele>
        <time>2013-07-17T06:55:53Z</time>
      </trkpt>
      <trkpt lat="48.36922" lon="2.81873">
        <ele>63.1</ele>
        <time>2013-07-17T06:56:06Z</time>
      </trkpt>
      <trkpt lat="48.36907" lon="2.8189">
        <ele>64.07</ele>
        <time>2013-07-17T06:56:21Z</time>
      </trkpt>
      <trkpt lat="48.36888" lon="2.81907">
        <ele>61.66</ele>
        <time>2013-07-17T06:56:36Z</time>
      </trkpt>
      <trkpt lat="48.36869" lon="2.81919">
        <ele>61.66</ele>
        <time>2013-07-17T06:56:52Z</time>
      </trkpt>
      <trkpt lat="48.36863" lon="2.81922">
        <ele>61.66</ele>
        <time>2013-07-17T06:56:56Z</time>
      </trkpt>
      <trkpt lat="48.36839" lon="2.81939">
        <ele>63.1</ele>
        <time>2013-07-17T06:57:14Z</time>
      </trkpt>
      <trkpt lat="48.3682" lon="2.81948">
        <ele>61.66</ele>
        <time>2013-07-17T06:57:29Z</time>
      </trkpt>
      <trkpt lat="48.36818" lon="2.81949">
        <ele>61.66</ele>
        <time>2013-07-17T06:57:31Z</time>
      </trkpt>
      <trkpt lat="48.368" lon="2.81953">
        <ele>59.74</ele>
        <time>2013-07-17T06:57:42Z</time>
      </trkpt>
      <trkpt lat="48.36784" lon="2.81959">
        <ele>58.3</ele>
        <time>2013-07-17T06:57:57Z</time>
      </trkpt>
      <trkpt lat="48.36764" lon="2.81964">
        <ele>58.78</ele>
        <time>2013-07-17T06:58:09Z</time>
      </trkpt>
      <trkpt lat="48.36748" lon="2.81969">
        <ele>58.3</ele>
        <time>2013-07-17T06:58:22Z</time>
      </trkpt>
      <trkpt lat="48.36726" lon="2.81969">
        <ele>55.41</ele>
        <time>2013-07-17T06:58:36Z</time>
      </trkpt>
      <trkpt lat="48.36722" lon="2.81971">
        <ele>54.93</ele>
        <time>2013-07-17T06:58:39Z</time>
      </trkpt>
      <trkpt lat="48.36699" lon="2.81977">
        <ele>52.05</ele>
        <time>2013-07-17T06:58:55Z</time>
      </trkpt>
      <trkpt lat="48.36685" lon="2.81982">
        <ele>50.61</ele>
        <time>2013-07-17T06:59:09Z</time>
      </trkpt>
      <trkpt lat="48.36662" lon="2.81976">
        <ele>45.32</ele>
        <time>2013-07-17T06:59:24Z</time>
      </trkpt>
      <trkpt lat="48.36651" lon="2.8198">
        <ele>43.88</ele>
        <time>2013-07-17T06:59:35Z</time>
      </trkpt>
      <trkpt lat="48.36643" lon="2.81984">
        <ele>44.36</ele>
        <time>2013-07-17T06:59:41Z</time>
      </trkpt>
      <trkpt lat="48.36623" lon="2.81984">
        <ele>44.84</ele>
        <time>2013-07-17T06:59:54Z</time>
      </trkpt>
      <trkpt lat="48.36606" lon="2.81985">
        <ele>44.84</ele>
        <time>2013-07-17T07:00:10Z</time>
      </trkpt>
      <trkpt lat="48.36584" lon="2.81991">
        <ele>45.32</ele>
        <time>2013-07-17T07:00:26Z</time>
      </trkpt>
      <trkpt lat="48.36581" lon="2.82005">
        <ele>44.84</ele>
        <time>2013-07-17T07:00:34Z</time>
      </trkpt>
      <trkpt lat="48.3658" lon="2.82011">
        <ele>44.84</ele>
        <time>2013-07-17T07:00:37Z</time>
      </trkpt>
      <trkpt lat="48.36579" lon="2.82039">
        <ele>43.88</ele>
        <time>2013-07-17T07:00:54Z</time>
      </trkpt>
      <trkpt lat="48.36576" lon="2.82075">
        <ele>44.36</ele>
        <time>2013-07-17T07:01:16Z</time>
      </trkpt>
      <trkpt lat="48.36565" lon="2.82098">
        <ele>45.32</ele>
        <time>2013-07-17T07:01:29Z</time>
      </trkpt>
      <trkpt lat="48.36542" lon="2.82111">
        <ele>42.44</ele>
        <time>2013-07-17T07:01:45Z</time>
      </trkpt>
      <trkpt lat="48.36527" lon="2.82121">
        <ele>44.36</ele>
        <time>2013-07-17T07:01:55Z</time>
      </trkpt>
      <trkpt lat="48.36513" lon="2.82135">
        <ele>46.28</ele>
        <time>2013-07-17T07:02:07Z</time>
      </trkpt>
      <trkpt lat="48.36492" lon="2.82149">
        <ele>45.8</ele>
        <time>2013-07-17T07:02:20Z</time>
      </trkpt>
      <trkpt lat="48.36482" lon="2.8216">
        <ele>44.36</ele>
        <time>2013-07-17T07:02:34Z</time>
      </trkpt>
      <trkpt lat="48.36463" lon="2.82172">
        <ele>45.32</ele>
        <time>2013-07-17T07:02:48Z</time>
      </trkpt>
      <trkpt lat="48.36447" lon="2.82178">
        <ele>45.8</ele>
        <time>2013-07-17T07:03:00Z</time>
      </trkpt>
      <trkpt lat="48.3643" lon="2.82175">
        <ele>44.84</ele>
        <time>2013-07-17T07:03:14Z</time>
      </trkpt>
      <trkpt lat="48.36413" lon="2.82175">
        <ele>42.92</ele>
        <time>2013-07-17T07:03:32Z</time>
      </trkpt>
      <trkpt lat="48.3638" lon="2.82188">
        <ele>42.44</ele>
        <time>2013-07-17T07:04:07Z</time>
      </trkpt>
      <trkpt lat="48.36348" lon="2.82162">
        <ele>47.24</ele>
        <time>2013-07-17T07:04:22Z</time>
      </trkpt>
      <trkpt lat="48.36347" lon="2.8216">
        <ele>47.24</ele>
        <time>2013-07-17T07:04:23Z</time>
      </trkpt>
      <trkpt lat="48.36329" lon="2.82149">
        <ele>46.28</ele>
        <time>2013-07-17T07:04:38Z</time>
      </trkpt>
      <trkpt lat="48.36312" lon="2.82147">
        <ele>44.84</ele>
        <time>2013-07-17T07:04:53Z</time>
      </trkpt>
      <trkpt lat="48.36296" lon="2.82139">
        <ele>43.4</ele>
        <time>2013-07-17T07:05:14Z</time>
      </trkpt>
      <trkpt lat="48.36288" lon="2.82138">
        <ele>43.88</ele>
        <time>2013-07-17T07:05:25Z</time>
      </trkpt>
      <trkpt lat="48.36257" lon="2.82127">
        <ele>49.65</ele>
        <time>2013-07-17T07:05:41Z</time>
      </trkpt>
      <trkpt lat="48.36238" lon="2.82115">
        <ele>52.05</ele>
        <time>2013-07-17T07:05:52Z</time>
      </trkpt>
      <trkpt lat="48.36218" lon="2.8211">
        <ele>48.68</ele>
        <time>2013-07-17T07:06:08Z</time>
      </trkpt>
      <trkpt lat="48.36196" lon="2.82102">
        <ele>46.28</ele>
        <time>2013-07-17T07:06:23Z</time>
      </trkpt>
      <trkpt lat="48.36178" lon="2.82096">
        <ele>47.24</ele>
        <time>2013-07-17T07:06:37Z</time>
      </trkpt>
      <trkpt lat="48.36163" lon="2.82087">
        <ele>45.8</ele>
        <time>2013-07-17T07:06:49Z</time>
      </trkpt>
      <trkpt lat="48.36144" lon="2.82079">
        <ele>42.92</ele>
        <time>2013-07-17T07:07:05Z</time>
      </trkpt>
      <trkpt lat="48.36125" lon="2.82068">
        <ele>42.44</ele>
        <time>2013-07-17T07:07:19Z</time>
      </trkpt>
      <trkpt lat="48.36118" lon="2.82064">
        <ele>41.95</ele>
        <time>2013-07-17T07:07:37Z</time>
      </trkpt>
      <trkpt lat="48.36103" lon="2.82056">
        <ele>41.95</ele>
        <time>2013-07-17T07:07:52Z</time>
      </trkpt>
      <trkpt lat="48.36093" lon="2.82046">
        <ele>43.4</ele>
        <time>2013-07-17T07:08:00Z</time>
      </trkpt>
      <trkpt lat="48.3609" lon="2.8204">
        <ele>44.36</ele>
        <time>2013-07-17T07:08:04Z</time>
      </trkpt>
      <trkpt lat="48.36073" lon="2.82031">
        <ele>46.28</ele>
        <time>2013-07-17T07:08:16Z</time>
      </trkpt>
      <trkpt lat="48.36069" lon="2.8203">
        <ele>45.8</ele>
        <time>2013-07-17T07:08:20Z</time>
      </trkpt>
      <trkpt lat="48.36066" lon="2.82029">
        <ele>45.8</ele>
        <time>2013-07-17T07:08:23Z</time>
      </trkpt>
      <trkpt lat="48.3605" lon="2.82021">
        <ele>46.76</ele>
        <time>2013-07-17T07:08:34Z</time>
      </trkpt>
      <trkpt lat="48.36027" lon="2.82009">
        <ele>45.32</ele>
        <time>2013-07-17T07:08:51Z</time>
      </trkpt>
      <trkpt lat="48.36008" lon="2.81998">
        <ele>44.84</ele>
        <time>2013-07-17T07:09:06Z</time>
      </trkpt>
      <trkpt lat="48.35984" lon="2.81987">
        <ele>43.4</ele>
        <time>2013-07-17T07:09:23Z</time>
      </trkpt>
      <trkpt lat="48.35958" lon="2.81968">
        <ele>45.8</ele>
        <time>2013-07-17T07:09:44Z</time>
      </trkpt>
      <trkpt lat="48.35939" lon="2.81942">
        <ele>44.84</ele>
        <time>2013-07-17T07:10:00Z</time>
      </trkpt>
      <trkpt lat="48.35929" lon="2.81926">
        <ele>44.36</ele>
        <time>2013-07-17T07:10:12Z</time>
      </trkpt>
      <trkpt lat="48.35918" lon="2.81911">
        <ele>43.4</ele>
        <time>2013-07-17T07:10:24Z</time>
      </trkpt>
      <trkpt lat="48.35905" lon="2.81882">
        <ele>43.88</ele>
        <time>2013-07-17T07:10:39Z</time>
      </trkpt>
      <trkpt lat="48.35891" lon="2.81862">
        <ele>47.72</ele>
        <time>2013-07-17T07:10:56Z</time>
      </trkpt>
      <trkpt lat="48.35874" lon="2.81839">
        <ele>48.2</ele>
        <time>2013-07-17T07:11:09Z</time>
      </trkpt>
      <trkpt lat="48.35872" lon="2.81839">
        <ele>48.68</ele>
        <time>2013-07-17T07:11:14Z</time>
      </trkpt>
      <trkpt lat="48.35868" lon="2.81824">
        <ele>48.68</ele>
        <time>2013-07-17T07:11:22Z</time>
      </trkpt>
      <trkpt lat="48.35864" lon="2.81818">
        <ele>47.24</ele>
        <time>2013-07-17T07:11:27Z</time>
      </trkpt>
      <trkpt lat="48.35849" lon="2.81793">
        <ele>45.32</ele>
        <time>2013-07-17T07:11:46Z</time>
      </trkpt>
      <trkpt lat="48.35829" lon="2.81763">
        <ele>44.84</ele>
        <time>2013-07-17T07:12:07Z</time>
      </trkpt>
      <trkpt lat="48.35817" lon="2.81744">
        <ele>44.36</ele>
        <time>2013-07-17T07:12:19Z</time>
      </trkpt>
      <trkpt lat="48.35809" lon="2.81737">
        <ele>42.92</ele>
        <time>2013-07-17T07:12:31Z</time>
      </trkpt>
      <trkpt lat="48.35785" lon="2.81716">
        <ele>42.92</ele>
        <time>2013-07-17T07:12:46Z</time>
      </trkpt>
      <trkpt lat="48.35759" lon="2.81695">
        <ele>48.2</ele>
        <time>2013-07-17T07:13:05Z</time>
      </trkpt>
      <trkpt lat="48.3574" lon="2.81677">
        <ele>48.68</ele>
        <time>2013-07-17T07:13:21Z</time>
      </trkpt>
      <trkpt lat="48.35723" lon="2.81652">
        <ele>48.68</ele>
        <time>2013-07-17T07:13:39Z</time>
      </trkpt>
      <trkpt lat="48.35703" lon="2.81632">
        <ele>49.65</ele>
        <time>2013-07-17T07:13:56Z</time>
      </trkpt>
      <trkpt lat="48.35686" lon="2.81614">
        <ele>48.68</ele>
        <time>2013-07-17T07:14:11Z</time>
      </trkpt>
      <trkpt lat="48.35671" lon="2.81596">
        <ele>47.72</ele>
        <time>2013-07-17T07:14:27Z</time>
      </trkpt>
      <trkpt lat="48.35652" lon="2.81569">
        <ele>49.16</ele>
        <time>2013-07-17T07:14:45Z</time>
      </trkpt>
      <trkpt lat="48.35652" lon="2.81568">
        <ele>49.65</ele>
        <time>2013-07-17T07:14:46Z</time>
      </trkpt>
      <trkpt lat="48.35642" lon="2.81552">
        <ele>50.13</ele>
        <time>2013-07-17T07:14:55Z</time>
      </trkpt>
      <trkpt lat="48.35626" lon="2.81532">
        <ele>51.09</ele>
        <time>2013-07-17T07:15:10Z</time>
      </trkpt>
      <trkpt lat="48.35608" lon="2.8151">
        <ele>47.24</ele>
        <time>2013-07-17T07:15:24Z</time>
      </trkpt>
      <trkpt lat="48.35595" lon="2.815">
        <ele>45.8</ele>
        <time>2013-07-17T07:15:37Z</time>
      </trkpt>
      <trkpt lat="48.35589" lon="2.81488">
        <ele>46.28</ele>
        <time>2013-07-17T07:15:43Z</time>
      </trkpt>
      <trkpt lat="48.35578" lon="2.81476">
        <ele>45.32</ele>
        <time>2013-07-17T07:15:53Z</time>
      </trkpt>
      <trkpt lat="48.35577" lon="2.81474">
        <ele>45.32</ele>
        <time>2013-07-17T07:15:54Z</time>
      </trkpt>
      <trkpt lat="48.3557" lon="2.8147">
        <ele>45.32</ele>
        <time>2013-07-17T07:15:59Z</time>
      </trkpt>
      <trkpt lat="48.35546" lon="2.81449">
        <ele>44.36</ele>
        <time>2013-07-17T07:16:20Z</time>
      </trkpt>
      <trkpt lat="48.35546" lon="2.81448">
        <ele>44.36</ele>
        <time>2013-07-17T07:16:24Z</time>
      </trkpt>
      <trkpt lat="48.35544" lon="2.81446">
        <ele>44.36</ele>
        <time>2013-07-17T07:16:26Z</time>
      </trkpt>
      <trkpt lat="48.35518" lon="2.81428">
        <ele>44.36</ele>
        <time>2013-07-17T07:16:51Z</time>
      </trkpt>
      <trkpt lat="48.35512" lon="2.81415">
        <ele>46.76</ele>
        <time>2013-07-17T07:17:00Z</time>
      </trkpt>
      <trkpt lat="48.35495" lon="2.81397">
        <ele>50.13</ele>
        <time>2013-07-17T07:17:16Z</time>
      </trkpt>
      <trkpt lat="48.35493" lon="2.81395">
        <ele>50.13</ele>
        <time>2013-07-17T07:17:18Z</time>
      </trkpt>
      <trkpt lat="48.35479" lon="2.81384">
        <ele>51.09</ele>
        <time>2013-07-17T07:17:34Z</time>
      </trkpt>
      <trkpt lat="48.35463" lon="2.81367">
        <ele>52.05</ele>
        <time>2013-07-17T07:17:47Z</time>
      </trkpt>
      <trkpt lat="48.35449" lon="2.81345">
        <ele>48.68</ele>
        <time>2013-07-17T07:18:00Z</time>
      </trkpt>
      <trkpt lat="48.35429" lon="2.81311">
        <ele>50.61</ele>
        <time>2013-07-17T07:18:22Z</time>
      </trkpt>
      <trkpt lat="48.35411" lon="2.81269">
        <ele>50.61</ele>
        <time>2013-07-17T07:18:56Z</time>
      </trkpt>
      <trkpt lat="48.35403" lon="2.81249">
        <ele>49.16</ele>
        <time>2013-07-17T07:19:08Z</time>
      </trkpt>
      <trkpt lat="48.354" lon="2.81236">
        <ele>48.68</ele>
        <time>2013-07-17T07:19:15Z</time>
      </trkpt>
      <trkpt lat="48.3539" lon="2.81205">
        <ele>48.68</ele>
        <time>2013-07-17T07:19:33Z</time>
      </trkpt>
      <trkpt lat="48.35383" lon="2.81179">
        <ele>46.76</ele>
        <time>2013-07-17T07:19:47Z</time>
      </trkpt>
      <trkpt lat="48.35382" lon="2.81167">
        <ele>45.32</ele>
        <time>2013-07-17T07:19:53Z</time>
      </trkpt>
      <trkpt lat="48.35374" lon="2.81138">
        <ele>47.72</ele>
        <time>2013-07-17T07:20:08Z</time>
      </trkpt>
      <trkpt lat="48.35372" lon="2.81129">
        <ele>47.72</ele>
        <time>2013-07-17T07:20:13Z</time>
      </trkpt>
      <trkpt lat="48.35364" lon="2.8111">
        <ele>46.76</ele>
        <time>2013-07-17T07:20:29Z</time>
      </trkpt>
      <trkpt lat="48.35363" lon="2.81105">
        <ele>47.24</ele>
        <time>2013-07-17T07:20:31Z</time>
      </trkpt>
      <trkpt lat="48.35358" lon="2.8109">
        <ele>48.68</ele>
        <time>2013-07-17T07:20:36Z</time>
      </trkpt>
      <trkpt lat="48.35352" lon="2.8106">
        <ele>49.16</ele>
        <time>2013-07-17T07:20:49Z</time>
      </trkpt>
      <trkpt lat="48.35349" lon="2.81033">
        <ele>47.72</ele>
        <time>2013-07-17T07:21:03Z</time>
      </trkpt>
      <trkpt lat="48.35343" lon="2.81002">
        <ele>49.65</ele>
        <time>2013-07-17T07:21:17Z</time>
      </trkpt>
      <trkpt lat="48.35337" lon="2.80982">
        <ele>51.09</ele>
        <time>2013-07-17T07:21:30Z</time>
      </trkpt>
      <trkpt lat="48.35326" lon="2.80945">
        <ele>50.61</ele>
        <time>2013-07-17T07:21:45Z</time>
      </trkpt>
      <trkpt lat="48.35325" lon="2.80941">
        <ele>50.13</ele>
        <time>2013-07-17T07:21:48Z</time>
      </trkpt>
      <trkpt lat="48.35323" lon="2.80934">
        <ele>50.61</ele>
        <time>2013-07-17T07:21:53Z</time>
      </trkpt>
      <trkpt lat="48.35317" lon="2.80911">
        <ele>50.13</ele>
        <time>2013-07-17T07:22:04Z</time>
      </trkpt>
      <trkpt lat="48.35312" lon="2.80891">
        <ele>49.16</ele>
        <time>2013-07-17T07:22:18Z</time>
      </trkpt>
      <trkpt lat="48.35311" lon="2.80882">
        <ele>49.65</ele>
        <time>2013-07-17T07:22:31Z</time>
      </trkpt>
      <trkpt lat="48.35305" lon="2.80889">
        <ele>49.16</ele>
        <time>2013-07-17T07:22:54Z</time>
      </trkpt>
      <trkpt lat="48.35298" lon="2.80898">
        <ele>49.16</ele>
        <time>2013-07-17T07:23:14Z</time>
      </trkpt>
      <trkpt lat="48.35304" lon="2.80865">
        <ele>50.13</ele>
        <time>2013-07-17T07:23:30Z</time>
      </trkpt>
      <trkpt lat="48.353" lon="2.80855">
        <ele>50.61</ele>
        <time>2013-07-17T07:23:40Z</time>
      </trkpt>
      <trkpt lat="48.35292" lon="2.80803">
        <ele>47.24</ele>
        <time>2013-07-17T07:24:05Z</time>
      </trkpt>
      <trkpt lat="48.35287" lon="2.80762">
        <ele>53.01</ele>
        <time>2013-07-17T07:24:21Z</time>
      </trkpt>
      <trkpt lat="48.35284" lon="2.80734">
        <ele>54.93</ele>
        <time>2013-07-17T07:24:35Z</time>
      </trkpt>
      <trkpt lat="48.35282" lon="2.80714">
        <ele>54.45</ele>
        <time>2013-07-17T07:24:46Z</time>
      </trkpt>
      <trkpt lat="48.35278" lon="2.80704">
        <ele>54.93</ele>
        <time>2013-07-17T07:24:54Z</time>
      </trkpt>
      <trkpt lat="48.35272" lon="2.80675">
        <ele>54.93</ele>
        <time>2013-07-17T07:25:08Z</time>
      </trkpt>
      <trkpt lat="48.35265" lon="2.8065">
        <ele>53.49</ele>
        <time>2013-07-17T07:25:23Z</time>
      </trkpt>
      <trkpt lat="48.3526" lon="2.80629">
        <ele>52.05</ele>
        <time>2013-07-17T07:25:33Z</time>
      </trkpt>
      <trkpt lat="48.35256" lon="2.8061">
        <ele>51.09</ele>
        <time>2013-07-17T07:25:42Z</time>
      </trkpt>
      <trkpt lat="48.35247" lon="2.80579">
        <ele>47.24</ele>
        <time>2013-07-17T07:25:59Z</time>
      </trkpt>
      <trkpt lat="48.35245" lon="2.80561">
        <ele>46.76</ele>
        <time>2013-07-17T07:26:08Z</time>
      </trkpt>
      <trkpt lat="48.35246" lon="2.80541">
        <ele>47.72</ele>
        <time>2013-07-17T07:26:18Z</time>
      </trkpt>
      <trkpt lat="48.35264" lon="2.80527">
        <ele>47.24</ele>
        <time>2013-07-17T07:26:35Z</time>
      </trkpt>
      <trkpt lat="48.35285" lon="2.80515">
        <ele>49.16</ele>
        <time>2013-07-17T07:26:48Z</time>
      </trkpt>
      <trkpt lat="48.35303" lon="2.80502">
        <ele>51.09</ele>
        <time>2013-07-17T07:27:03Z</time>
      </trkpt>
      <trkpt lat="48.35315" lon="2.8049">
        <ele>51.57</ele>
        <time>2013-07-17T07:27:16Z</time>
      </trkpt>
      <trkpt lat="48.35322" lon="2.80486">
        <ele>51.57</ele>
        <time>2013-07-17T07:27:20Z</time>
      </trkpt>
      <trkpt lat="48.35341" lon="2.80475">
        <ele>48.68</ele>
        <time>2013-07-17T07:27:32Z</time>
      </trkpt>
      <trkpt lat="48.35355" lon="2.80463">
        <ele>45.8</ele>
        <time>2013-07-17T07:27:46Z</time>
      </trkpt>
      <trkpt lat="48.35376" lon="2.80451">
        <ele>47.72</ele>
        <time>2013-07-17T07:27:59Z</time>
      </trkpt>
      <trkpt lat="48.35389" lon="2.80444">
        <ele>49.16</ele>
        <time>2013-07-17T07:28:13Z</time>
      </trkpt>
      <trkpt lat="48.35394" lon="2.80442">
        <ele>49.16</ele>
        <time>2013-07-17T07:28:17Z</time>
      </trkpt>
      <trkpt lat="48.35416" lon="2.80428">
        <ele>47.24</ele>
        <time>2013-07-17T07:28:35Z</time>
      </trkpt>
      <trkpt lat="48.35424" lon="2.80422">
        <ele>45.8</ele>
        <time>2013-07-17T07:28:41Z</time>
      </trkpt>
      <trkpt lat="48.35433" lon="2.80416">
        <ele>45.8</ele>
        <time>2013-07-17T07:28:47Z</time>
      </trkpt>
      <trkpt lat="48.35439" lon="2.80413">
        <ele>45.8</ele>
        <time>2013-07-17T07:28:51Z</time>
      </trkpt>
      <trkpt lat="48.35458" lon="2.80402">
        <ele>47.24</ele>
        <time>2013-07-17T07:29:05Z</time>
      </trkpt>
      <trkpt lat="48.35464" lon="2.80395">
        <ele>48.68</ele>
        <time>2013-07-17T07:29:11Z</time>
      </trkpt>
      <trkpt lat="48.3547" lon="2.80387">
        <ele>50.13</ele>
        <time>2013-07-17T07:29:16Z</time>
      </trkpt>
      <trkpt lat="48.35474" lon="2.80372">
        <ele>54.93</ele>
        <time>2013-07-17T07:29:32Z</time>
      </trkpt>
      <trkpt lat="48.35467" lon="2.80356">
        <ele>55.89</ele>
        <time>2013-07-17T07:29:45Z</time>
      </trkpt>
      <trkpt lat="48.35459" lon="2.80328">
        <ele>56.86</ele>
        <time>2013-07-17T07:30:00Z</time>
      </trkpt>
      <trkpt lat="48.35449" lon="2.80311">
        <ele>57.34</ele>
        <time>2013-07-17T07:30:12Z</time>
      </trkpt>
      <trkpt lat="48.35434" lon="2.8028">
        <ele>53.01</ele>
        <time>2013-07-17T07:30:26Z</time>
      </trkpt>
      <trkpt lat="48.35434" lon="2.80277">
        <ele>53.01</ele>
        <time>2013-07-17T07:30:27Z</time>
      </trkpt>
      <trkpt lat="48.3543" lon="2.80257">
        <ele>52.53</ele>
        <time>2013-07-17T07:30:41Z</time>
      </trkpt>
      <trkpt lat="48.35419" lon="2.80233">
        <ele>51.09</ele>
        <time>2013-07-17T07:30:56Z</time>
      </trkpt>
      <trkpt lat="48.35405" lon="2.80215">
        <ele>47.72</ele>
        <time>2013-07-17T07:31:12Z</time>
      </trkpt>
      <trkpt lat="48.35386" lon="2.80182">
        <ele>47.72</ele>
        <time>2013-07-17T07:31:30Z</time>
      </trkpt>
      <trkpt lat="48.35372" lon="2.80155">
        <ele>45.8</ele>
        <time>2013-07-17T07:31:46Z</time>
      </trkpt>
      <trkpt lat="48.35366" lon="2.80142">
        <ele>47.72</ele>
        <time>2013-07-17T07:31:52Z</time>
      </trkpt>
      <trkpt lat="48.35357" lon="2.80125">
        <ele>50.61</ele>
        <time>2013-07-17T07:32:04Z</time>
      </trkpt>
      <trkpt lat="48.35339" lon="2.80096">
        <ele>52.53</ele>
        <time>2013-07-17T07:32:20Z</time>
      </trkpt>
      <trkpt lat="48.35326" lon="2.80076">
        <ele>52.53</ele>
        <time>2013-07-17T07:32:36Z</time>
      </trkpt>
      <trkpt lat="48.35325" lon="2.80075">
        <ele>52.53</ele>
        <time>2013-07-17T07:32:37Z</time>
      </trkpt>
      <trkpt lat="48.3531" lon="2.80053">
        <ele>51.57</ele>
        <time>2013-07-17T07:32:53Z</time>
      </trkpt>
      <trkpt lat="48.35295" lon="2.80033">
        <ele>51.57</ele>
        <time>2013-07-17T07:33:08Z</time>
      </trkpt>
      <trkpt lat="48.35279" lon="2.80018">
        <ele>51.57</ele>
        <time>2013-07-17T07:33:23Z</time>
      </trkpt>
      <trkpt lat="48.35273" lon="2.80015">
        <ele>52.05</ele>
        <time>2013-07-17T07:33:27Z</time>
      </trkpt>
      <trkpt lat="48.35258" lon="2.80003">
        <ele>55.41</ele>
        <time>2013-07-17T07:33:37Z</time>
      </trkpt>
      <trkpt lat="48.35239" lon="2.79982">
        <ele>59.74</ele>
        <time>2013-07-17T07:33:53Z</time>
      </trkpt>
      <trkpt lat="48.35238" lon="2.79968">
        <ele>59.26</ele>
        <time>2013-07-17T07:34:03Z</time>
      </trkpt>
      <trkpt lat="48.35261" lon="2.79954">
        <ele>60.22</ele>
        <time>2013-07-17T07:34:21Z</time>
      </trkpt>
      <trkpt lat="48.35276" lon="2.7995">
        <ele>60.7</ele>
        <time>2013-07-17T07:34:31Z</time>
      </trkpt>
      <trkpt lat="48.353" lon="2.79941">
        <ele>57.34</ele>
        <time>2013-07-17T07:34:46Z</time>
      </trkpt>
      <trkpt lat="48.35313" lon="2.79932">
        <ele>57.82</ele>
        <time>2013-07-17T07:35:01Z</time>
      </trkpt>
      <trkpt lat="48.35326" lon="2.79926">
        <ele>57.82</ele>
        <time>2013-07-17T07:35:12Z</time>
      </trkpt>
      <trkpt lat="48.35352" lon="2.79922">
        <ele>59.74</ele>
        <time>2013-07-17T07:35:27Z</time>
      </trkpt>
      <trkpt lat="48.35359" lon="2.7992">
        <ele>60.22</ele>
        <time>2013-07-17T07:35:34Z</time>
      </trkpt>
      <trkpt lat="48.35374" lon="2.79922">
        <ele>58.78</ele>
        <time>2013-07-17T07:35:44Z</time>
      </trkpt>
      <trkpt lat="48.35395" lon="2.79922">
        <ele>57.34</ele>
        <time>2013-07-17T07:35:59Z</time>
      </trkpt>
      <trkpt lat="48.35401" lon="2.79921">
        <ele>56.86</ele>
        <time>2013-07-17T07:36:03Z</time>
      </trkpt>
      <trkpt lat="48.35408" lon="2.79921">
        <ele>56.37</ele>
        <time>2013-07-17T07:36:07Z</time>
      </trkpt>
      <trkpt lat="48.35426" lon="2.79926">
        <ele>52.53</ele>
        <time>2013-07-17T07:36:20Z</time>
      </trkpt>
      <trkpt lat="48.35445" lon="2.79925">
        <ele>53.49</ele>
        <time>2013-07-17T07:36:37Z</time>
      </trkpt>
      <trkpt lat="48.35462" lon="2.79929">
        <ele>54.45</ele>
        <time>2013-07-17T07:36:51Z</time>
      </trkpt>
      <trkpt lat="48.35485" lon="2.79935">
        <ele>56.37</ele>
        <time>2013-07-17T07:37:05Z</time>
      </trkpt>
      <trkpt lat="48.35507" lon="2.7994">
        <ele>55.89</ele>
        <time>2013-07-17T07:37:21Z</time>
      </trkpt>
      <trkpt lat="48.35524" lon="2.79939">
        <ele>56.37</ele>
        <time>2013-07-17T07:37:36Z</time>
      </trkpt>
      <trkpt lat="48.35547" lon="2.79943">
        <ele>58.3</ele>
        <time>2013-07-17T07:37:50Z</time>
      </trkpt>
      <trkpt lat="48.35566" lon="2.7994">
        <ele>58.78</ele>
        <time>2013-07-17T07:38:05Z</time>
      </trkpt>
      <trkpt lat="48.35588" lon="2.79948">
        <ele>59.74</ele>
        <time>2013-07-17T07:38:15Z</time>
      </trkpt>
      <trkpt lat="48.356" lon="2.79941">
        <ele>58.78</ele>
        <time>2013-07-17T07:38:28Z</time>
      </trkpt>
      <trkpt lat="48.35609" lon="2.79939">
        <ele>55.41</ele>
        <time>2013-07-17T07:38:38Z</time>
      </trkpt>
      <trkpt lat="48.35612" lon="2.79938">
        <ele>54.45</ele>
        <time>2013-07-17T07:38:40Z</time>
      </trkpt>
      <trkpt lat="48.35621" lon="2.79938">
        <ele>52.05</ele>
        <time>2013-07-17T07:38:45Z</time>
      </trkpt>
      <trkpt lat="48.35624" lon="2.79936">
        <ele>50.61</ele>
        <time>2013-07-17T07:38:48Z</time>
      </trkpt>
      <trkpt lat="48.35639" lon="2.79917">
        <ele>47.24</ele>
        <time>2013-07-17T07:39:03Z</time>
      </trkpt>
      <trkpt lat="48.35649" lon="2.79899">
        <ele>43.88</ele>
        <time>2013-07-17T07:39:19Z</time>
      </trkpt>
      <trkpt lat="48.35654" lon="2.7989">
        <ele>43.88</ele>
        <time>2013-07-17T07:39:25Z</time>
      </trkpt>
      <trkpt lat="48.35679" lon="2.79864">
        <ele>45.8</ele>
        <time>2013-07-17T07:39:39Z</time>
      </trkpt>
      <trkpt lat="48.3569" lon="2.79853">
        <ele>47.24</ele>
        <time>2013-07-17T07:39:50Z</time>
      </trkpt>
      <trkpt lat="48.35693" lon="2.7985">
        <ele>48.2</ele>
        <time>2013-07-17T07:39:53Z</time>
      </trkpt>
      <trkpt lat="48.35696" lon="2.79846">
        <ele>50.61</ele>
        <time>2013-07-17T07:40:00Z</time>
      </trkpt>
      <trkpt lat="48.35707" lon="2.79867">
        <ele>50.61</ele>
        <time>2013-07-17T07:40:11Z</time>
      </trkpt>
      <trkpt lat="48.35724" lon="2.79873">
        <ele>53.01</ele>
        <time>2013-07-17T07:40:29Z</time>
      </trkpt>
      <trkpt lat="48.35724" lon="2.79856">
        <ele>53.97</ele>
        <time>2013-07-17T07:40:37Z</time>
      </trkpt>
      <trkpt lat="48.35719" lon="2.79851">
        <ele>55.41</ele>
        <time>2013-07-17T07:40:44Z</time>
      </trkpt>
      <trkpt lat="48.3571" lon="2.79826">
        <ele>56.37</ele>
        <time>2013-07-17T07:40:57Z</time>
      </trkpt>
      <trkpt lat="48.35701" lon="2.79808">
        <ele>57.82</ele>
        <time>2013-07-17T07:41:15Z</time>
      </trkpt>
      <trkpt lat="48.35699" lon="2.79804">
        <ele>57.82</ele>
        <time>2013-07-17T07:41:20Z</time>
      </trkpt>
      <trkpt lat="48.35699" lon="2.798">
        <ele>57.34</ele>
        <time>2013-07-17T07:41:23Z</time>
      </trkpt>
      <trkpt lat="48.35697" lon="2.79772">
        <ele>56.37</ele>
        <time>2013-07-17T07:41:40Z</time>
      </trkpt>
      <trkpt lat="48.35696" lon="2.79748">
        <ele>55.41</ele>
        <time>2013-07-17T07:41:56Z</time>
      </trkpt>
      <trkpt lat="48.35695" lon="2.79737">
        <ele>55.89</ele>
        <time>2013-07-17T07:42:02Z</time>
      </trkpt>
      <trkpt lat="48.35683" lon="2.79714">
        <ele>58.78</ele>
        <time>2013-07-17T07:42:16Z</time>
      </trkpt>
      <trkpt lat="48.35671" lon="2.79693">
        <ele>61.66</ele>
        <time>2013-07-17T07:42:30Z</time>
      </trkpt>
      <trkpt lat="48.35654" lon="2.79663">
        <ele>63.58</ele>
        <time>2013-07-17T07:42:44Z</time>
      </trkpt>
      <trkpt lat="48.35638" lon="2.79645">
        <ele>65.03</ele>
        <time>2013-07-17T07:43:01Z</time>
      </trkpt>
      <trkpt lat="48.35623" lon="2.79628">
        <ele>65.03</ele>
        <time>2013-07-17T07:43:14Z</time>
      </trkpt>
      <trkpt lat="48.35613" lon="2.79606">
        <ele>63.58</ele>
        <time>2013-07-17T07:43:27Z</time>
      </trkpt>
      <trkpt lat="48.35608" lon="2.79602">
        <ele>62.62</ele>
        <time>2013-07-17T07:43:33Z</time>
      </trkpt>
      <trkpt lat="48.35597" lon="2.79589">
        <ele>62.14</ele>
        <time>2013-07-17T07:43:42Z</time>
      </trkpt>
      <trkpt lat="48.35585" lon="2.79562">
        <ele>64.07</ele>
        <time>2013-07-17T07:43:56Z</time>
      </trkpt>
      <trkpt lat="48.3558" lon="2.79558">
        <ele>65.03</ele>
        <time>2013-07-17T07:44:02Z</time>
      </trkpt>
      <trkpt lat="48.35574" lon="2.79553">
        <ele>65.03</ele>
        <time>2013-07-17T07:44:07Z</time>
      </trkpt>
      <trkpt lat="48.35562" lon="2.79533">
        <ele>62.14</ele>
        <time>2013-07-17T07:44:17Z</time>
      </trkpt>
      <trkpt lat="48.35546" lon="2.79518">
        <ele>60.22</ele>
        <time>2013-07-17T07:44:33Z</time>
      </trkpt>
      <trkpt lat="48.35533" lon="2.79492">
        <ele>58.78</ele>
        <time>2013-07-17T07:44:47Z</time>
      </trkpt>
      <trkpt lat="48.35516" lon="2.79478">
        <ele>59.26</ele>
        <time>2013-07-17T07:45:03Z</time>
      </trkpt>
      <trkpt lat="48.35498" lon="2.79447">
        <ele>59.26</ele>
        <time>2013-07-17T07:45:19Z</time>
      </trkpt>
      <trkpt lat="48.35483" lon="2.79432">
        <ele>60.7</ele>
        <time>2013-07-17T07:45:34Z</time>
      </trkpt>
      <trkpt lat="48.35468" lon="2.79405">
        <ele>63.1</ele>
        <time>2013-07-17T07:45:49Z</time>
      </trkpt>
      <trkpt lat="48.35467" lon="2.79405">
        <ele>63.58</ele>
        <time>2013-07-17T07:45:50Z</time>
      </trkpt>
      <trkpt lat="48.35457" lon="2.79386">
        <ele>66.47</ele>
        <time>2013-07-17T07:46:01Z</time>
      </trkpt>
      <trkpt lat="48.35448" lon="2.79375">
        <ele>66.47</ele>
        <time>2013-07-17T07:46:12Z</time>
      </trkpt>
      <trkpt lat="48.35439" lon="2.79348">
        <ele>65.99</ele>
        <time>2013-07-17T07:46:28Z</time>
      </trkpt>
      <trkpt lat="48.35422" lon="2.79317">
        <ele>68.39</ele>
        <time>2013-07-17T07:46:45Z</time>
      </trkpt>
      <trkpt lat="48.35412" lon="2.79291">
        <ele>65.99</ele>
        <time>2013-07-17T07:46:57Z</time>
      </trkpt>
      <trkpt lat="48.35401" lon="2.79276">
        <ele>66.47</ele>
        <time>2013-07-17T07:47:12Z</time>
      </trkpt>
      <trkpt lat="48.354" lon="2.79272">
        <ele>66.95</ele>
        <time>2013-07-17T07:47:14Z</time>
      </trkpt>
      <trkpt lat="48.35391" lon="2.79251">
        <ele>67.91</ele>
        <time>2013-07-17T07:47:24Z</time>
      </trkpt>
      <trkpt lat="48.35388" lon="2.7924">
        <ele>67.91</ele>
        <time>2013-07-17T07:47:34Z</time>
      </trkpt>
      <trkpt lat="48.35387" lon="2.79238">
        <ele>67.91</ele>
        <time>2013-07-17T07:47:35Z</time>
      </trkpt>
      <trkpt lat="48.35376" lon="2.79218">
        <ele>64.55</ele>
        <time>2013-07-17T07:47:45Z</time>
      </trkpt>
      <trkpt lat="48.35366" lon="2.7921">
        <ele>63.58</ele>
        <time>2013-07-17T07:47:56Z</time>
      </trkpt>
      <trkpt lat="48.35363" lon="2.79209">
        <ele>63.1</ele>
        <time>2013-07-17T07:48:00Z</time>
      </trkpt>
      <trkpt lat="48.35358" lon="2.79203">
        <ele>63.58</ele>
        <time>2013-07-17T07:48:04Z</time>
      </trkpt>
      <trkpt lat="48.35352" lon="2.79193">
        <ele>64.55</ele>
        <time>2013-07-17T07:48:09Z</time>
      </trkpt>
      <trkpt lat="48.35339" lon="2.79173">
        <ele>69.35</ele>
        <time>2013-07-17T07:48:24Z</time>
      </trkpt>
      <trkpt lat="48.35338" lon="2.79172">
        <ele>69.83</ele>
        <time>2013-07-17T07:48:25Z</time>
      </trkpt>
      <trkpt lat="48.35333" lon="2.79163">
        <ele>69.83</ele>
        <time>2013-07-17T07:48:30Z</time>
      </trkpt>
      <trkpt lat="48.35321" lon="2.79145">
        <ele>68.87</ele>
        <time>2013-07-17T07:48:43Z</time>
      </trkpt>
      <trkpt lat="48.35313" lon="2.79132">
        <ele>67.43</ele>
        <time>2013-07-17T07:48:51Z</time>
      </trkpt>
      <trkpt lat="48.35301" lon="2.79113">
        <ele>65.03</ele>
        <time>2013-07-17T07:49:05Z</time>
      </trkpt>
      <trkpt lat="48.35296" lon="2.79107">
        <ele>65.51</ele>
        <time>2013-07-17T07:49:10Z</time>
      </trkpt>
      <trkpt lat="48.35291" lon="2.791">
        <ele>65.03</ele>
        <time>2013-07-17T07:49:14Z</time>
      </trkpt>
      <trkpt lat="48.35286" lon="2.79089">
        <ele>64.55</ele>
        <time>2013-07-17T07:49:20Z</time>
      </trkpt>
      <trkpt lat="48.3528" lon="2.79078">
        <ele>64.55</ele>
        <time>2013-07-17T07:49:25Z</time>
      </trkpt>
      <trkpt lat="48.35269" lon="2.79062">
        <ele>64.55</ele>
        <time>2013-07-17T07:49:41Z</time>
      </trkpt>
      <trkpt lat="48.35268" lon="2.79061">
        <ele>64.07</ele>
        <time>2013-07-17T07:49:42Z</time>
      </trkpt>
      <trkpt lat="48.35259" lon="2.79045">
        <ele>64.55</ele>
        <time>2013-07-17T07:49:49Z</time>
      </trkpt>
      <trkpt lat="48.35245" lon="2.79023">
        <ele>68.87</ele>
        <time>2013-07-17T07:50:04Z</time>
      </trkpt>
      <trkpt lat="48.35241" lon="2.79018">
        <ele>69.35</ele>
        <time>2013-07-17T07:50:09Z</time>
      </trkpt>
      <trkpt lat="48.35238" lon="2.79013">
        <ele>69.35</ele>
        <time>2013-07-17T07:50:12Z</time>
      </trkpt>
      <trkpt lat="48.35226" lon="2.7898">
        <ele>71.76</ele>
        <time>2013-07-17T07:50:26Z</time>
      </trkpt>
      <trkpt lat="48.35216" lon="2.78964">
        <ele>72.24</ele>
        <time>2013-07-17T07:50:39Z</time>
      </trkpt>
      <trkpt lat="48.35209" lon="2.78942">
        <ele>71.76</ele>
        <time>2013-07-17T07:50:52Z</time>
      </trkpt>
      <trkpt lat="48.352" lon="2.78929">
        <ele>71.27</ele>
        <time>2013-07-17T07:50:58Z</time>
      </trkpt>
      <trkpt lat="48.3519" lon="2.7891">
        <ele>71.27</ele>
        <time>2013-07-17T07:51:06Z</time>
      </trkpt>
      <trkpt lat="48.35189" lon="2.78903">
        <ele>71.27</ele>
        <time>2013-07-17T07:51:11Z</time>
      </trkpt>
      <trkpt lat="48.35184" lon="2.78893">
        <ele>70.79</ele>
        <time>2013-07-17T07:51:16Z</time>
      </trkpt>
      <trkpt lat="48.3518" lon="2.78882">
        <ele>70.79</ele>
        <time>2013-07-17T07:51:20Z</time>
      </trkpt>
      <trkpt lat="48.35174" lon="2.78862">
        <ele>69.35</ele>
        <time>2013-07-17T07:51:33Z</time>
      </trkpt>
      <trkpt lat="48.35174" lon="2.7886">
        <ele>69.35</ele>
        <time>2013-07-17T07:51:36Z</time>
      </trkpt>
      <trkpt lat="48.3517" lon="2.78835">
        <ele>69.35</ele>
        <time>2013-07-17T07:51:47Z</time>
      </trkpt>
      <trkpt lat="48.35164" lon="2.78826">
        <ele>69.83</ele>
        <time>2013-07-17T07:51:55Z</time>
      </trkpt>
      <trkpt lat="48.35157" lon="2.78819">
        <ele>68.39</ele>
        <time>2013-07-17T07:52:01Z</time>
      </trkpt>
      <trkpt lat="48.35144" lon="2.78799">
        <ele>67.91</ele>
        <time>2013-07-17T07:52:11Z</time>
      </trkpt>
      <trkpt lat="48.35135" lon="2.78786">
        <ele>66.95</ele>
        <time>2013-07-17T07:52:23Z</time>
      </trkpt>
      <trkpt lat="48.3513" lon="2.78778">
        <ele>66.95</ele>
        <time>2013-07-17T07:52:29Z</time>
      </trkpt>
      <trkpt lat="48.35122" lon="2.78761">
        <ele>66.47</ele>
        <time>2013-07-17T07:52:36Z</time>
      </trkpt>
      <trkpt lat="48.35117" lon="2.78751">
        <ele>67.43</ele>
        <time>2013-07-17T07:52:49Z</time>
      </trkpt>
      <trkpt lat="48.35116" lon="2.7875">
        <ele>67.43</ele>
        <time>2013-07-17T07:52:51Z</time>
      </trkpt>
      <trkpt lat="48.35102" lon="2.7873">
        <ele>65.99</ele>
        <time>2013-07-17T07:53:03Z</time>
      </trkpt>
      <trkpt lat="48.35095" lon="2.7872">
        <ele>65.99</ele>
        <time>2013-07-17T07:53:13Z</time>
      </trkpt>
      <trkpt lat="48.35083" lon="2.78707">
        <ele>65.99</ele>
        <time>2013-07-17T07:53:26Z</time>
      </trkpt>
      <trkpt lat="48.35072" lon="2.78686">
        <ele>67.43</ele>
        <time>2013-07-17T07:53:38Z</time>
      </trkpt>
      <trkpt lat="48.35067" lon="2.78682">
        <ele>67.43</ele>
        <time>2013-07-17T07:53:44Z</time>
      </trkpt>
      <trkpt lat="48.35055" lon="2.7866">
        <ele>67.91</ele>
        <time>2013-07-17T07:53:54Z</time>
      </trkpt>
      <trkpt lat="48.35049" lon="2.78633">
        <ele>64.55</ele>
        <time>2013-07-17T07:54:08Z</time>
      </trkpt>
      <trkpt lat="48.35048" lon="2.78629">
        <ele>64.55</ele>
        <time>2013-07-17T07:54:11Z</time>
      </trkpt>
      <trkpt lat="48.35043" lon="2.78616">
        <ele>63.1</ele>
        <time>2013-07-17T07:54:17Z</time>
      </trkpt>
      <trkpt lat="48.35034" lon="2.78592">
        <ele>60.22</ele>
        <time>2013-07-17T07:54:30Z</time>
      </trkpt>
      <trkpt lat="48.35032" lon="2.78587">
        <ele>60.22</ele>
        <time>2013-07-17T07:54:35Z</time>
      </trkpt>
      <trkpt lat="48.3503" lon="2.78578">
        <ele>59.26</ele>
        <time>2013-07-17T07:54:39Z</time>
      </trkpt>
      <trkpt lat="48.35024" lon="2.78556">
        <ele>59.74</ele>
        <time>2013-07-17T07:54:49Z</time>
      </trkpt>
      <trkpt lat="48.35018" lon="2.78547">
        <ele>60.22</ele>
        <time>2013-07-17T07:54:57Z</time>
      </trkpt>
      <trkpt lat="48.35011" lon="2.78514">
        <ele>61.66</ele>
        <time>2013-07-17T07:55:10Z</time>
      </trkpt>
      <trkpt lat="48.35007" lon="2.78501">
        <ele>64.07</ele>
        <time>2013-07-17T07:55:21Z</time>
      </trkpt>
      <trkpt lat="48.35005" lon="2.78498">
        <ele>64.55</ele>
        <time>2013-07-17T07:55:23Z</time>
      </trkpt>
      <trkpt lat="48.35" lon="2.78486">
        <ele>64.55</ele>
        <time>2013-07-17T07:55:28Z</time>
      </trkpt>
      <trkpt lat="48.3499" lon="2.78462">
        <ele>65.51</ele>
        <time>2013-07-17T07:55:42Z</time>
      </trkpt>
      <trkpt lat="48.34984" lon="2.78455">
        <ele>65.03</ele>
        <time>2013-07-17T07:55:48Z</time>
      </trkpt>
      <trkpt lat="48.3497" lon="2.78433">
        <ele>67.43</ele>
        <time>2013-07-17T07:56:05Z</time>
      </trkpt>
      <trkpt lat="48.34967" lon="2.78431">
        <ele>67.43</ele>
        <time>2013-07-17T07:56:08Z</time>
      </trkpt>
      <trkpt lat="48.34961" lon="2.78429">
        <ele>66.47</ele>
        <time>2013-07-17T07:56:12Z</time>
      </trkpt>
      <trkpt lat="48.34946" lon="2.7841">
        <ele>66.95</ele>
        <time>2013-07-17T07:56:26Z</time>
      </trkpt>
      <trkpt lat="48.34942" lon="2.78407">
        <ele>65.99</ele>
        <time>2013-07-17T07:56:31Z</time>
      </trkpt>
      <trkpt lat="48.34936" lon="2.78402">
        <ele>65.51</ele>
        <time>2013-07-17T07:56:36Z</time>
      </trkpt>
      <trkpt lat="48.34918" lon="2.78375">
        <ele>65.99</ele>
        <time>2013-07-17T07:56:51Z</time>
      </trkpt>
      <trkpt lat="48.34905" lon="2.78358">
        <ele>64.07</ele>
        <time>2013-07-17T07:57:03Z</time>
      </trkpt>
      <trkpt lat="48.34891" lon="2.78338">
        <ele>65.51</ele>
        <time>2013-07-17T07:57:17Z</time>
      </trkpt>
      <trkpt lat="48.34876" lon="2.78313">
        <ele>66.47</ele>
        <time>2013-07-17T07:57:30Z</time>
      </trkpt>
      <trkpt lat="48.34866" lon="2.78298">
        <ele>66.47</ele>
        <time>2013-07-17T07:57:42Z</time>
      </trkpt>
      <trkpt lat="48.34865" lon="2.78295">
        <ele>66.95</ele>
        <time>2013-07-17T07:57:47Z</time>
      </trkpt>
      <trkpt lat="48.34864" lon="2.78292">
        <ele>67.43</ele>
        <time>2013-07-17T07:57:49Z</time>
      </trkpt>
      <trkpt lat="48.34857" lon="2.78265">
        <ele>67.91</ele>
        <time>2013-07-17T07:58:01Z</time>
      </trkpt>
      <trkpt lat="48.34846" lon="2.78252">
        <ele>69.35</ele>
        <time>2013-07-17T07:58:11Z</time>
      </trkpt>
      <trkpt lat="48.34835" lon="2.78224">
        <ele>71.76</ele>
        <time>2013-07-17T07:58:24Z</time>
      </trkpt>
      <trkpt lat="48.34834" lon="2.7822">
        <ele>71.76</ele>
        <time>2013-07-17T07:58:27Z</time>
      </trkpt>
      <trkpt lat="48.34837" lon="2.78202">
        <ele>72.24</ele>
        <time>2013-07-17T07:58:39Z</time>
      </trkpt>
      <trkpt lat="48.34844" lon="2.78186">
        <ele>71.76</ele>
        <time>2013-07-17T07:58:52Z</time>
      </trkpt>
      <trkpt lat="48.34848" lon="2.78174">
        <ele>71.76</ele>
        <time>2013-07-17T07:58:59Z</time>
      </trkpt>
      <trkpt lat="48.34856" lon="2.78161">
        <ele>70.79</ele>
        <time>2013-07-17T07:59:06Z</time>
      </trkpt>
      <trkpt lat="48.3486" lon="2.78154">
        <ele>70.31</ele>
        <time>2013-07-17T07:59:10Z</time>
      </trkpt>
      <trkpt lat="48.34871" lon="2.78132">
        <ele>69.35</ele>
        <time>2013-07-17T07:59:24Z</time>
      </trkpt>
      <trkpt lat="48.34883" lon="2.78109">
        <ele>68.87</ele>
        <time>2013-07-17T07:59:41Z</time>
      </trkpt>
      <trkpt lat="48.34889" lon="2.78088">
        <ele>69.83</ele>
        <time>2013-07-17T07:59:58Z</time>
      </trkpt>
      <trkpt lat="48.34891" lon="2.78085">
        <ele>69.83</ele>
        <time>2013-07-17T08:00:01Z</time>
      </trkpt>
      <trkpt lat="48.34913" lon="2.78062">
        <ele>71.27</ele>
        <time>2013-07-17T08:00:13Z</time>
      </trkpt>
      <trkpt lat="48.34926" lon="2.78043">
        <ele>72.24</ele>
        <time>2013-07-17T08:00:26Z</time>
      </trkpt>
      <trkpt lat="48.3493" lon="2.78035">
        <ele>73.2</ele>
        <time>2013-07-17T08:00:32Z</time>
      </trkpt>
      <trkpt lat="48.34937" lon="2.78017">
        <ele>73.68</ele>
        <time>2013-07-17T08:00:46Z</time>
      </trkpt>
      <trkpt lat="48.3494" lon="2.78012">
        <ele>74.64</ele>
        <time>2013-07-17T08:00:51Z</time>
      </trkpt>
      <trkpt lat="48.34946" lon="2.78005">
        <ele>75.12</ele>
        <time>2013-07-17T08:00:56Z</time>
      </trkpt>
      <trkpt lat="48.3495" lon="2.77999">
        <ele>75.12</ele>
        <time>2013-07-17T08:01:00Z</time>
      </trkpt>
      <trkpt lat="48.34969" lon="2.77978">
        <ele>76.56</ele>
        <time>2013-07-17T08:01:15Z</time>
      </trkpt>
      <trkpt lat="48.34974" lon="2.77969">
        <ele>76.08</ele>
        <time>2013-07-17T08:01:22Z</time>
      </trkpt>
      <trkpt lat="48.34991" lon="2.77949">
        <ele>76.56</ele>
        <time>2013-07-17T08:01:33Z</time>
      </trkpt>
      <trkpt lat="48.35004" lon="2.77932">
        <ele>77.04</ele>
        <time>2013-07-17T08:01:48Z</time>
      </trkpt>
      <trkpt lat="48.35011" lon="2.77922">
        <ele>79.45</ele>
        <time>2013-07-17T08:01:55Z</time>
      </trkpt>
      <trkpt lat="48.35016" lon="2.77914">
        <ele>79.45</ele>
        <time>2013-07-17T08:02:00Z</time>
      </trkpt>
      <trkpt lat="48.35028" lon="2.77892">
        <ele>78.48</ele>
        <time>2013-07-17T08:02:16Z</time>
      </trkpt>
      <trkpt lat="48.35038" lon="2.7788">
        <ele>78</ele>
        <time>2013-07-17T08:02:29Z</time>
      </trkpt>
      <trkpt lat="48.35053" lon="2.7787">
        <ele>81.85</ele>
        <time>2013-07-17T08:02:40Z</time>
      </trkpt>
      <trkpt lat="48.35071" lon="2.77857">
        <ele>84.25</ele>
        <time>2013-07-17T08:02:56Z</time>
      </trkpt>
      <trkpt lat="48.35089" lon="2.77843">
        <ele>79.93</ele>
        <time>2013-07-17T08:03:16Z</time>
      </trkpt>
      <trkpt lat="48.35113" lon="2.77828">
        <ele>76.56</ele>
        <time>2013-07-17T08:03:40Z</time>
      </trkpt>
      <trkpt lat="48.35128" lon="2.77819">
        <ele>76.56</ele>
        <time>2013-07-17T08:04:01Z</time>
      </trkpt>
      <trkpt lat="48.35154" lon="2.77801">
        <ele>74.16</ele>
        <time>2013-07-17T08:04:27Z</time>
      </trkpt>
      <trkpt lat="48.35192" lon="2.7778">
        <ele>73.68</ele>
        <time>2013-07-17T08:04:44Z</time>
      </trkpt>
      <trkpt lat="48.35236" lon="2.77759">
        <ele>79.93</ele>
        <time>2013-07-17T08:05:06Z</time>
      </trkpt>
      <trkpt lat="48.35259" lon="2.77747">
        <ele>83.77</ele>
        <time>2013-07-17T08:05:31Z</time>
      </trkpt>
      <trkpt lat="48.35275" lon="2.7774">
        <ele>84.25</ele>
        <time>2013-07-17T08:05:48Z</time>
      </trkpt>
      <trkpt lat="48.35276" lon="2.77738">
        <ele>85.21</ele>
        <time>2013-07-17T08:06:11Z</time>
      </trkpt>
      <trkpt lat="48.35276" lon="2.77738">
        <ele>85.21</ele>
        <time>2013-07-17T08:06:33Z</time>
      </trkpt>
      <trkpt lat="48.35281" lon="2.77739">
        <ele>86.18</ele>
        <time>2013-07-17T08:06:58Z</time>
      </trkpt>
      <trkpt lat="48.35288" lon="2.77738">
        <ele>87.14</ele>
        <time>2013-07-17T08:07:26Z</time>
      </trkpt>
      <trkpt lat="48.35283" lon="2.77733">
        <ele>89.54</ele>
        <time>2013-07-17T08:07:58Z</time>
      </trkpt>
      <trkpt lat="48.35288" lon="2.77729">
        <ele>90.5</ele>
        <time>2013-07-17T08:08:14Z</time>
      </trkpt>
      <trkpt lat="48.35309" lon="2.77716">
        <ele>90.5</ele>
        <time>2013-07-17T08:08:30Z</time>
      </trkpt>
      <trkpt lat="48.35323" lon="2.77708">
        <ele>89.54</ele>
        <time>2013-07-17T08:08:42Z</time>
      </trkpt>
      <trkpt lat="48.35347" lon="2.77704">
        <ele>90.98</ele>
        <time>2013-07-17T08:08:59Z</time>
      </trkpt>
      <trkpt lat="48.35361" lon="2.777">
        <ele>92.42</ele>
        <time>2013-07-17T08:09:12Z</time>
      </trkpt>
      <trkpt lat="48.35391" lon="2.77688">
        <ele>85.69</ele>
        <time>2013-07-17T08:09:34Z</time>
      </trkpt>
      <trkpt lat="48.35398" lon="2.77682">
        <ele>83.29</ele>
        <time>2013-07-17T08:09:39Z</time>
      </trkpt>
      <trkpt lat="48.35406" lon="2.77679">
        <ele>83.77</ele>
        <time>2013-07-17T08:09:44Z</time>
      </trkpt>
      <trkpt lat="48.35408" lon="2.77698">
        <ele>80.41</ele>
        <time>2013-07-17T08:09:55Z</time>
      </trkpt>
      <trkpt lat="48.35408" lon="2.77705">
        <ele>79.45</ele>
        <time>2013-07-17T08:09:59Z</time>
      </trkpt>
      <trkpt lat="48.35401" lon="2.7774">
        <ele>78.97</ele>
        <time>2013-07-17T08:10:14Z</time>
      </trkpt>
      <trkpt lat="48.35396" lon="2.7776">
        <ele>79.45</ele>
        <time>2013-07-17T08:10:27Z</time>
      </trkpt>
      <trkpt lat="48.35393" lon="2.7779">
        <ele>80.41</ele>
        <time>2013-07-17T08:10:39Z</time>
      </trkpt>
      <trkpt lat="48.35393" lon="2.7781">
        <ele>81.85</ele>
        <time>2013-07-17T08:10:51Z</time>
      </trkpt>
      <trkpt lat="48.35392" lon="2.77818">
        <ele>81.85</ele>
        <time>2013-07-17T08:10:56Z</time>
      </trkpt>
      <trkpt lat="48.3539" lon="2.77826">
        <ele>82.33</ele>
        <time>2013-07-17T08:11:00Z</time>
      </trkpt>
      <trkpt lat="48.35385" lon="2.77864">
        <ele>83.29</ele>
        <time>2013-07-17T08:11:14Z</time>
      </trkpt>
      <trkpt lat="48.35384" lon="2.77882">
        <ele>82.33</ele>
        <time>2013-07-17T08:11:27Z</time>
      </trkpt>
      <trkpt lat="48.35383" lon="2.77906">
        <ele>81.37</ele>
        <time>2013-07-17T08:11:36Z</time>
      </trkpt>
      <trkpt lat="48.35379" lon="2.77931">
        <ele>79.93</ele>
        <time>2013-07-17T08:11:51Z</time>
      </trkpt>
      <trkpt lat="48.35372" lon="2.77961">
        <ele>79.93</ele>
        <time>2013-07-17T08:12:06Z</time>
      </trkpt>
      <trkpt lat="48.35372" lon="2.77985">
        <ele>81.37</ele>
        <time>2013-07-17T08:12:18Z</time>
      </trkpt>
      <trkpt lat="48.35371" lon="2.78014">
        <ele>82.33</ele>
        <time>2013-07-17T08:12:30Z</time>
      </trkpt>
      <trkpt lat="48.35367" lon="2.78044">
        <ele>86.18</ele>
        <time>2013-07-17T08:12:42Z</time>
      </trkpt>
      <trkpt lat="48.35366" lon="2.78061">
        <ele>87.62</ele>
        <time>2013-07-17T08:12:55Z</time>
      </trkpt>
      <trkpt lat="48.35365" lon="2.78065">
        <ele>87.62</ele>
        <time>2013-07-17T08:12:57Z</time>
      </trkpt>
      <trkpt lat="48.35362" lon="2.78096">
        <ele>85.69</ele>
        <time>2013-07-17T08:13:09Z</time>
      </trkpt>
      <trkpt lat="48.35361" lon="2.78109">
        <ele>84.73</ele>
        <time>2013-07-17T08:13:14Z</time>
      </trkpt>
      <trkpt lat="48.35362" lon="2.78121">
        <ele>85.21</ele>
        <time>2013-07-17T08:13:24Z</time>
      </trkpt>
      <trkpt lat="48.35361" lon="2.78145">
        <ele>87.62</ele>
        <time>2013-07-17T08:13:33Z</time>
      </trkpt>
      <trkpt lat="48.35356" lon="2.78173">
        <ele>88.58</ele>
        <time>2013-07-17T08:13:48Z</time>
      </trkpt>
      <trkpt lat="48.35351" lon="2.78196">
        <ele>86.18</ele>
        <time>2013-07-17T08:14:02Z</time>
      </trkpt>
      <trkpt lat="48.35349" lon="2.78208">
        <ele>85.69</ele>
        <time>2013-07-17T08:14:07Z</time>
      </trkpt>
      <trkpt lat="48.35346" lon="2.78234">
        <ele>84.25</ele>
        <time>2013-07-17T08:14:21Z</time>
      </trkpt>
      <trkpt lat="48.35342" lon="2.78252">
        <ele>82.33</ele>
        <time>2013-07-17T08:14:33Z</time>
      </trkpt>
      <trkpt lat="48.35343" lon="2.78254">
        <ele>82.33</ele>
        <time>2013-07-17T08:14:34Z</time>
      </trkpt>
      <trkpt lat="48.35354" lon="2.78266">
        <ele>84.25</ele>
        <time>2013-07-17T08:14:42Z</time>
      </trkpt>
      <trkpt lat="48.35368" lon="2.78267">
        <ele>82.33</ele>
        <time>2013-07-17T08:14:56Z</time>
      </trkpt>
      <trkpt lat="48.35387" lon="2.78265">
        <ele>79.45</ele>
        <time>2013-07-17T08:15:08Z</time>
      </trkpt>
      <trkpt lat="48.35397" lon="2.78265">
        <ele>78.48</ele>
        <time>2013-07-17T08:15:21Z</time>
      </trkpt>
      <trkpt lat="48.35416" lon="2.78264">
        <ele>74.64</ele>
        <time>2013-07-17T08:15:34Z</time>
      </trkpt>
      <trkpt lat="48.35426" lon="2.78261">
        <ele>72.24</ele>
        <time>2013-07-17T08:15:48Z</time>
      </trkpt>
      <trkpt lat="48.35427" lon="2.78262">
        <ele>72.24</ele>
        <time>2013-07-17T08:15:49Z</time>
      </trkpt>
      <trkpt lat="48.35451" lon="2.78262">
        <ele>72.24</ele>
        <time>2013-07-17T08:16:02Z</time>
      </trkpt>
      <trkpt lat="48.35458" lon="2.78262">
        <ele>71.76</ele>
        <time>2013-07-17T08:16:11Z</time>
      </trkpt>
      <trkpt lat="48.35466" lon="2.78261">
        <ele>71.27</ele>
        <time>2013-07-17T08:16:17Z</time>
      </trkpt>
      <trkpt lat="48.35491" lon="2.78261">
        <ele>70.31</ele>
        <time>2013-07-17T08:16:32Z</time>
      </trkpt>
      <trkpt lat="48.35512" lon="2.78258">
        <ele>71.76</ele>
        <time>2013-07-17T08:16:46Z</time>
      </trkpt>
      <trkpt lat="48.35536" lon="2.78262">
        <ele>73.68</ele>
        <time>2013-07-17T08:16:59Z</time>
      </trkpt>
      <trkpt lat="48.35554" lon="2.78261">
        <ele>74.64</ele>
        <time>2013-07-17T08:17:13Z</time>
      </trkpt>
      <trkpt lat="48.35574" lon="2.78261">
        <ele>75.6</ele>
        <time>2013-07-17T08:17:27Z</time>
      </trkpt>
      <trkpt lat="48.35588" lon="2.78258">
        <ele>76.56</ele>
        <time>2013-07-17T08:17:42Z</time>
      </trkpt>
      <trkpt lat="48.35606" lon="2.78258">
        <ele>75.12</ele>
        <time>2013-07-17T08:17:53Z</time>
      </trkpt>
      <trkpt lat="48.35621" lon="2.78257">
        <ele>75.6</ele>
        <time>2013-07-17T08:18:06Z</time>
      </trkpt>
      <trkpt lat="48.35642" lon="2.78259">
        <ele>72.72</ele>
        <time>2013-07-17T08:18:19Z</time>
      </trkpt>
      <trkpt lat="48.3566" lon="2.78258">
        <ele>72.24</ele>
        <time>2013-07-17T08:18:33Z</time>
      </trkpt>
      <trkpt lat="48.35668" lon="2.78259">
        <ele>73.68</ele>
        <time>2013-07-17T08:18:42Z</time>
      </trkpt>
      <trkpt lat="48.35687" lon="2.78264">
        <ele>72.24</ele>
        <time>2013-07-17T08:18:51Z</time>
      </trkpt>
      <trkpt lat="48.35704" lon="2.7826">
        <ele>73.68</ele>
        <time>2013-07-17T08:19:04Z</time>
      </trkpt>
      <trkpt lat="48.35707" lon="2.78258">
        <ele>74.16</ele>
        <time>2013-07-17T08:19:08Z</time>
      </trkpt>
      <trkpt lat="48.35724" lon="2.78256">
        <ele>71.76</ele>
        <time>2013-07-17T08:19:22Z</time>
      </trkpt>
      <trkpt lat="48.35732" lon="2.78254">
        <ele>73.2</ele>
        <time>2013-07-17T08:19:29Z</time>
      </trkpt>
      <trkpt lat="48.3576" lon="2.78258">
        <ele>74.64</ele>
        <time>2013-07-17T08:19:42Z</time>
      </trkpt>
      <trkpt lat="48.3577" lon="2.78253">
        <ele>72.72</ele>
        <time>2013-07-17T08:19:55Z</time>
      </trkpt>
      <trkpt lat="48.3579" lon="2.78253">
        <ele>69.35</ele>
        <time>2013-07-17T08:20:09Z</time>
      </trkpt>
      <trkpt lat="48.35805" lon="2.7825">
        <ele>72.72</ele>
        <time>2013-07-17T08:20:20Z</time>
      </trkpt>
      <trkpt lat="48.35827" lon="2.78251">
        <ele>73.2</ele>
        <time>2013-07-17T08:20:33Z</time>
      </trkpt>
      <trkpt lat="48.35852" lon="2.78253">
        <ele>78</ele>
        <time>2013-07-17T08:20:45Z</time>
      </trkpt>
      <trkpt lat="48.35869" lon="2.78254">
        <ele>77.52</ele>
        <time>2013-07-17T08:20:57Z</time>
      </trkpt>
      <trkpt lat="48.35888" lon="2.78253">
        <ele>76.56</ele>
        <time>2013-07-17T08:21:10Z</time>
      </trkpt>
      <trkpt lat="48.35902" lon="2.78251">
        <ele>76.08</ele>
        <time>2013-07-17T08:21:23Z</time>
      </trkpt>
      <trkpt lat="48.35911" lon="2.78247">
        <ele>75.6</ele>
        <time>2013-07-17T08:21:35Z</time>
      </trkpt>
      <trkpt lat="48.35929" lon="2.78243">
        <ele>72.72</ele>
        <time>2013-07-17T08:21:47Z</time>
      </trkpt>
      <trkpt lat="48.35951" lon="2.78243">
        <ele>72.72</ele>
        <time>2013-07-17T08:22:03Z</time>
      </trkpt>
      <trkpt lat="48.35952" lon="2.78243">
        <ele>72.72</ele>
        <time>2013-07-17T08:22:04Z</time>
      </trkpt>
      <trkpt lat="48.35972" lon="2.78248">
        <ele>73.68</ele>
        <time>2013-07-17T08:22:19Z</time>
      </trkpt>
      <trkpt lat="48.3599" lon="2.78246">
        <ele>73.68</ele>
        <time>2013-07-17T08:22:32Z</time>
      </trkpt>
      <trkpt lat="48.36004" lon="2.78245">
        <ele>76.56</ele>
        <time>2013-07-17T08:22:43Z</time>
      </trkpt>
      <trkpt lat="48.36021" lon="2.78245">
        <ele>78</ele>
        <time>2013-07-17T08:22:57Z</time>
      </trkpt>
      <trkpt lat="48.3604" lon="2.78245">
        <ele>82.81</ele>
        <time>2013-07-17T08:23:10Z</time>
      </trkpt>
      <trkpt lat="48.36057" lon="2.78245">
        <ele>83.77</ele>
        <time>2013-07-17T08:23:22Z</time>
      </trkpt>
      <trkpt lat="48.36073" lon="2.78244">
        <ele>78.97</ele>
        <time>2013-07-17T08:23:35Z</time>
      </trkpt>
      <trkpt lat="48.36098" lon="2.78246">
        <ele>81.37</ele>
        <time>2013-07-17T08:23:45Z</time>
      </trkpt>
      <trkpt lat="48.36116" lon="2.78247">
        <ele>85.69</ele>
        <time>2013-07-17T08:24:00Z</time>
      </trkpt>
      <trkpt lat="48.36134" lon="2.78246">
        <ele>81.85</ele>
        <time>2013-07-17T08:24:11Z</time>
      </trkpt>
      <trkpt lat="48.3615" lon="2.78243">
        <ele>80.89</ele>
        <time>2013-07-17T08:24:24Z</time>
      </trkpt>
      <trkpt lat="48.36161" lon="2.78242">
        <ele>79.45</ele>
        <time>2013-07-17T08:24:33Z</time>
      </trkpt>
      <trkpt lat="48.36175" lon="2.78243">
        <ele>78.48</ele>
        <time>2013-07-17T08:24:44Z</time>
      </trkpt>
      <trkpt lat="48.36189" lon="2.78241">
        <ele>76.56</ele>
        <time>2013-07-17T08:24:56Z</time>
      </trkpt>
      <trkpt lat="48.36198" lon="2.78239">
        <ele>76.08</ele>
        <time>2013-07-17T08:25:03Z</time>
      </trkpt>
      <trkpt lat="48.36207" lon="2.7824">
        <ele>77.04</ele>
        <time>2013-07-17T08:25:10Z</time>
      </trkpt>
      <trkpt lat="48.36214" lon="2.78241">
        <ele>77.52</ele>
        <time>2013-07-17T08:25:15Z</time>
      </trkpt>
      <trkpt lat="48.36238" lon="2.78239">
        <ele>78</ele>
        <time>2013-07-17T08:25:32Z</time>
      </trkpt>
      <trkpt lat="48.36255" lon="2.7824">
        <ele>78.97</ele>
        <time>2013-07-17T08:25:44Z</time>
      </trkpt>
      <trkpt lat="48.36276" lon="2.78238">
        <ele>75.6</ele>
        <time>2013-07-17T08:26:01Z</time>
      </trkpt>
      <trkpt lat="48.36301" lon="2.78236">
        <ele>71.27</ele>
        <time>2013-07-17T08:26:21Z</time>
      </trkpt>
      <trkpt lat="48.36329" lon="2.78237">
        <ele>70.31</ele>
        <time>2013-07-17T08:26:39Z</time>
      </trkpt>
      <trkpt lat="48.36358" lon="2.7823">
        <ele>70.31</ele>
        <time>2013-07-17T08:26:58Z</time>
      </trkpt>
      <trkpt lat="48.36387" lon="2.78226">
        <ele>68.87</ele>
        <time>2013-07-17T08:27:20Z</time>
      </trkpt>
      <trkpt lat="48.36412" lon="2.78228">
        <ele>70.31</ele>
        <time>2013-07-17T08:27:38Z</time>
      </trkpt>
      <trkpt lat="48.36438" lon="2.78228">
        <ele>73.2</ele>
        <time>2013-07-17T08:27:56Z</time>
      </trkpt>
      <trkpt lat="48.36461" lon="2.78225">
        <ele>75.12</ele>
        <time>2013-07-17T08:28:13Z</time>
      </trkpt>
      <trkpt lat="48.36489" lon="2.78226">
        <ele>76.08</ele>
        <time>2013-07-17T08:28:33Z</time>
      </trkpt>
      <trkpt lat="48.36516" lon="2.78225">
        <ele>76.08</ele>
        <time>2013-07-17T08:28:52Z</time>
      </trkpt>
      <trkpt lat="48.36532" lon="2.78224">
        <ele>76.56</ele>
        <time>2013-07-17T08:29:06Z</time>
      </trkpt>
      <trkpt lat="48.36557" lon="2.78225">
        <ele>78.97</ele>
        <time>2013-07-17T08:29:23Z</time>
      </trkpt>
      <trkpt lat="48.36575" lon="2.78224">
        <ele>79.93</ele>
        <time>2013-07-17T08:29:38Z</time>
      </trkpt>
      <trkpt lat="48.36595" lon="2.78226">
        <ele>79.93</ele>
        <time>2013-07-17T08:29:53Z</time>
      </trkpt>
      <trkpt lat="48.36615" lon="2.78226">
        <ele>79.45</ele>
        <time>2013-07-17T08:30:09Z</time>
      </trkpt>
      <trkpt lat="48.36618" lon="2.78226">
        <ele>78.97</ele>
        <time>2013-07-17T08:30:12Z</time>
      </trkpt>
      <trkpt lat="48.36624" lon="2.78223">
        <ele>82.33</ele>
        <time>2013-07-17T08:30:26Z</time>
      </trkpt>
      <trkpt lat="48.36625" lon="2.78221">
        <ele>83.29</ele>
        <time>2013-07-17T08:30:33Z</time>
      </trkpt>
      <trkpt lat="48.36633" lon="2.78221">
        <ele>84.25</ele>
        <time>2013-07-17T08:30:47Z</time>
      </trkpt>
      <trkpt lat="48.36644" lon="2.78223">
        <ele>78.97</ele>
        <time>2013-07-17T08:31:00Z</time>
      </trkpt>
      <trkpt lat="48.36658" lon="2.78224">
        <ele>75.6</ele>
        <time>2013-07-17T08:31:13Z</time>
      </trkpt>
      <trkpt lat="48.36676" lon="2.78222">
        <ele>76.08</ele>
        <time>2013-07-17T08:31:28Z</time>
      </trkpt>
      <trkpt lat="48.36688" lon="2.78223">
        <ele>76.08</ele>
        <time>2013-07-17T08:31:38Z</time>
      </trkpt>
      <trkpt lat="48.36708" lon="2.78226">
        <ele>75.6</ele>
        <time>2013-07-17T08:31:55Z</time>
      </trkpt>
      <trkpt lat="48.36725" lon="2.78224">
        <ele>73.68</ele>
        <time>2013-07-17T08:32:10Z</time>
      </trkpt>
      <trkpt lat="48.36751" lon="2.78216">
        <ele>76.08</ele>
        <time>2013-07-17T08:32:24Z</time>
      </trkpt>
      <trkpt lat="48.36784" lon="2.78221">
        <ele>78.48</ele>
        <time>2013-07-17T08:32:40Z</time>
      </trkpt>
      <trkpt lat="48.36806" lon="2.78221">
        <ele>80.89</ele>
        <time>2013-07-17T08:32:54Z</time>
      </trkpt>
      <trkpt lat="48.36824" lon="2.78219">
        <ele>80.41</ele>
        <time>2013-07-17T08:33:11Z</time>
      </trkpt>
      <trkpt lat="48.36837" lon="2.78215">
        <ele>79.93</ele>
        <time>2013-07-17T08:33:26Z</time>
      </trkpt>
      <trkpt lat="48.36853" lon="2.78216">
        <ele>74.16</ele>
        <time>2013-07-17T08:33:40Z</time>
      </trkpt>
      <trkpt lat="48.36863" lon="2.78214">
        <ele>74.64</ele>
        <time>2013-07-17T08:33:51Z</time>
      </trkpt>
      <trkpt lat="48.36877" lon="2.78212">
        <ele>74.16</ele>
        <time>2013-07-17T08:34:09Z</time>
      </trkpt>
      <trkpt lat="48.36894" lon="2.78208">
        <ele>75.6</ele>
        <time>2013-07-17T08:34:22Z</time>
      </trkpt>
      <trkpt lat="48.36918" lon="2.78209">
        <ele>77.04</ele>
        <time>2013-07-17T08:34:37Z</time>
      </trkpt>
      <trkpt lat="48.36928" lon="2.78206">
        <ele>77.04</ele>
        <time>2013-07-17T08:34:46Z</time>
      </trkpt>
      <trkpt lat="48.36949" lon="2.78207">
        <ele>77.04</ele>
        <time>2013-07-17T08:34:59Z</time>
      </trkpt>
      <trkpt lat="48.36963" lon="2.78206">
        <ele>77.04</ele>
        <time>2013-07-17T08:35:08Z</time>
      </trkpt>
      <trkpt lat="48.36968" lon="2.78203">
        <ele>77.04</ele>
        <time>2013-07-17T08:35:13Z</time>
      </trkpt>
      <trkpt lat="48.36987" lon="2.78206">
        <ele>77.04</ele>
        <time>2013-07-17T08:35:27Z</time>
      </trkpt>
      <trkpt lat="48.37009" lon="2.78206">
        <ele>75.12</ele>
        <time>2013-07-17T08:35:42Z</time>
      </trkpt>
      <trkpt lat="48.37025" lon="2.78206">
        <ele>74.64</ele>
        <time>2013-07-17T08:35:55Z</time>
      </trkpt>
      <trkpt lat="48.37045" lon="2.78205">
        <ele>74.16</ele>
        <time>2013-07-17T08:36:10Z</time>
      </trkpt>
      <trkpt lat="48.37051" lon="2.78202">
        <ele>74.16</ele>
        <time>2013-07-17T08:36:17Z</time>
      </trkpt>
      <trkpt lat="48.37073" lon="2.78205">
        <ele>73.2</ele>
        <time>2013-07-17T08:36:32Z</time>
      </trkpt>
      <trkpt lat="48.37085" lon="2.78203">
        <ele>74.16</ele>
        <time>2013-07-17T08:36:42Z</time>
      </trkpt>
      <trkpt lat="48.37109" lon="2.78203">
        <ele>75.12</ele>
        <time>2013-07-17T08:36:58Z</time>
      </trkpt>
      <trkpt lat="48.37128" lon="2.78201">
        <ele>76.08</ele>
        <time>2013-07-17T08:37:12Z</time>
      </trkpt>
      <trkpt lat="48.37149" lon="2.78203">
        <ele>76.56</ele>
        <time>2013-07-17T08:37:27Z</time>
      </trkpt>
      <trkpt lat="48.37161" lon="2.78205">
        <ele>74.64</ele>
        <time>2013-07-17T08:37:40Z</time>
      </trkpt>
      <trkpt lat="48.37165" lon="2.78208">
        <ele>73.68</ele>
        <time>2013-07-17T08:37:43Z</time>
      </trkpt>
      <trkpt lat="48.37169" lon="2.78213">
        <ele>73.2</ele>
        <time>2013-07-17T08:37:46Z</time>
      </trkpt>
      <trkpt lat="48.37172" lon="2.78226">
        <ele>73.2</ele>
        <time>2013-07-17T08:37:50Z</time>
      </trkpt>
      <trkpt lat="48.37183" lon="2.78247">
        <ele>73.2</ele>
        <time>2013-07-17T08:38:03Z</time>
      </trkpt>
      <trkpt lat="48.37189" lon="2.78255">
        <ele>73.2</ele>
        <time>2013-07-17T08:38:10Z</time>
      </trkpt>
      <trkpt lat="48.37191" lon="2.78258">
        <ele>72.72</ele>
        <time>2013-07-17T08:38:13Z</time>
      </trkpt>
      <trkpt lat="48.372" lon="2.78286">
        <ele>69.35</ele>
        <time>2013-07-17T08:38:26Z</time>
      </trkpt>
      <trkpt lat="48.37205" lon="2.78294">
        <ele>69.83</ele>
        <time>2013-07-17T08:38:33Z</time>
      </trkpt>
      <trkpt lat="48.37221" lon="2.78322">
        <ele>66.95</ele>
        <time>2013-07-17T08:38:48Z</time>
      </trkpt>
      <trkpt lat="48.37222" lon="2.78324">
        <ele>66.95</ele>
        <time>2013-07-17T08:38:50Z</time>
      </trkpt>
      <trkpt lat="48.37239" lon="2.7834">
        <ele>66.47</ele>
        <time>2013-07-17T08:39:04Z</time>
      </trkpt>
      <trkpt lat="48.3724" lon="2.78341">
        <ele>66.47</ele>
        <time>2013-07-17T08:39:05Z</time>
      </trkpt>
      <trkpt lat="48.37292" lon="2.78441">
        <ele>67.43</ele>
        <time>2013-07-17T08:40:06Z</time>
      </trkpt>
      <trkpt lat="48.37292" lon="2.78442">
        <ele>67.43</ele>
        <time>2013-07-17T08:40:07Z</time>
      </trkpt>
      <trkpt lat="48.37281" lon="2.78479">
        <ele>80.41</ele>
        <time>2013-07-17T08:40:30Z</time>
      </trkpt>
      <trkpt lat="48.3728" lon="2.78522">
        <ele>86.66</ele>
        <time>2013-07-17T08:40:53Z</time>
      </trkpt>
      <trkpt lat="48.37291" lon="2.78561">
        <ele>86.66</ele>
        <time>2013-07-17T08:41:10Z</time>
      </trkpt>
      <trkpt lat="48.373" lon="2.786">
        <ele>95.31</ele>
        <time>2013-07-17T08:41:33Z</time>
      </trkpt>
      <trkpt lat="48.37301" lon="2.78613">
        <ele>95.31</ele>
        <time>2013-07-17T08:41:43Z</time>
      </trkpt>
      <trkpt lat="48.37305" lon="2.78646">
        <ele>93.87</ele>
        <time>2013-07-17T08:42:05Z</time>
      </trkpt>
      <trkpt lat="48.3732" lon="2.78691">
        <ele>92.9</ele>
        <time>2013-07-17T08:42:27Z</time>
      </trkpt>
      <trkpt lat="48.37346" lon="2.7874">
        <ele>90.02</ele>
        <time>2013-07-17T08:42:42Z</time>
      </trkpt>
      <trkpt lat="48.37356" lon="2.78776">
        <ele>90.5</ele>
        <time>2013-07-17T08:43:05Z</time>
      </trkpt>
      <trkpt lat="48.37355" lon="2.78776">
        <ele>89.54</ele>
        <time>2013-07-17T08:43:20Z</time>
      </trkpt>
      <trkpt lat="48.37363" lon="2.78791">
        <ele>92.42</ele>
        <time>2013-07-17T08:43:29Z</time>
      </trkpt>
      <trkpt lat="48.37382" lon="2.78826">
        <ele>91.46</ele>
        <time>2013-07-17T08:43:51Z</time>
      </trkpt>
      <trkpt lat="48.37401" lon="2.78858">
        <ele>94.35</ele>
        <time>2013-07-17T08:44:11Z</time>
      </trkpt>
      <trkpt lat="48.37423" lon="2.78897">
        <ele>92.42</ele>
        <time>2013-07-17T08:44:35Z</time>
      </trkpt>
      <trkpt lat="48.37441" lon="2.78927">
        <ele>92.9</ele>
        <time>2013-07-17T08:44:55Z</time>
      </trkpt>
      <trkpt lat="48.37461" lon="2.7896">
        <ele>92.9</ele>
        <time>2013-07-17T08:45:16Z</time>
      </trkpt>
      <trkpt lat="48.37481" lon="2.78995">
        <ele>91.46</ele>
        <time>2013-07-17T08:45:39Z</time>
      </trkpt>
      <trkpt lat="48.375" lon="2.79025">
        <ele>91.46</ele>
        <time>2013-07-17T08:45:59Z</time>
      </trkpt>
      <trkpt lat="48.37512" lon="2.79044">
        <ele>88.58</ele>
        <time>2013-07-17T08:46:11Z</time>
      </trkpt>
      <trkpt lat="48.37527" lon="2.79065">
        <ele>86.18</ele>
        <time>2013-07-17T08:46:26Z</time>
      </trkpt>
      <trkpt lat="48.37539" lon="2.79092">
        <ele>85.21</ele>
        <time>2013-07-17T08:46:40Z</time>
      </trkpt>
      <trkpt lat="48.3755" lon="2.7911">
        <ele>84.25</ele>
        <time>2013-07-17T08:46:52Z</time>
      </trkpt>
      <trkpt lat="48.37548" lon="2.79125">
        <ele>82.81</ele>
        <time>2013-07-17T08:46:58Z</time>
      </trkpt>
      <trkpt lat="48.37538" lon="2.79141">
        <ele>84.25</ele>
        <time>2013-07-17T08:47:12Z</time>
      </trkpt>
      <trkpt lat="48.37533" lon="2.7916">
        <ele>86.66</ele>
        <time>2013-07-17T08:47:21Z</time>
      </trkpt>
      <trkpt lat="48.37536" lon="2.79174">
        <ele>87.14</ele>
        <time>2013-07-17T08:47:27Z</time>
      </trkpt>
      <trkpt lat="48.37545" lon="2.79201">
        <ele>87.62</ele>
        <time>2013-07-17T08:47:43Z</time>
      </trkpt>
      <trkpt lat="48.37559" lon="2.79229">
        <ele>87.14</ele>
        <time>2013-07-17T08:47:57Z</time>
      </trkpt>
      <trkpt lat="48.37564" lon="2.79234">
        <ele>86.66</ele>
        <time>2013-07-17T08:48:01Z</time>
      </trkpt>
      <trkpt lat="48.37568" lon="2.79245">
        <ele>87.14</ele>
        <time>2013-07-17T08:48:09Z</time>
      </trkpt>
      <trkpt lat="48.37585" lon="2.79272">
        <ele>89.06</ele>
        <time>2013-07-17T08:48:24Z</time>
      </trkpt>
      <trkpt lat="48.37594" lon="2.79287">
        <ele>87.62</ele>
        <time>2013-07-17T08:48:38Z</time>
      </trkpt>
      <trkpt lat="48.37608" lon="2.79308">
        <ele>87.14</ele>
        <time>2013-07-17T08:48:50Z</time>
      </trkpt>
      <trkpt lat="48.37622" lon="2.79318">
        <ele>90.02</ele>
        <time>2013-07-17T08:49:05Z</time>
      </trkpt>
      <trkpt lat="48.37638" lon="2.79332">
        <ele>97.23</ele>
        <time>2013-07-17T08:49:19Z</time>
      </trkpt>
      <trkpt lat="48.37651" lon="2.79341">
        <ele>98.67</ele>
        <time>2013-07-17T08:49:32Z</time>
      </trkpt>
      <trkpt lat="48.37677" lon="2.79372">
        <ele>95.79</ele>
        <time>2013-07-17T08:49:47Z</time>
      </trkpt>
      <trkpt lat="48.37686" lon="2.79386">
        <ele>95.31</ele>
        <time>2013-07-17T08:49:59Z</time>
      </trkpt>
      <trkpt lat="48.37705" lon="2.79407">
        <ele>95.31</ele>
        <time>2013-07-17T08:50:14Z</time>
      </trkpt>
      <trkpt lat="48.37707" lon="2.7942">
        <ele>92.9</ele>
        <time>2013-07-17T08:50:27Z</time>
      </trkpt>
      <trkpt lat="48.37707" lon="2.79424">
        <ele>92.42</ele>
        <time>2013-07-17T08:50:30Z</time>
      </trkpt>
      <trkpt lat="48.37715" lon="2.79461">
        <ele>92.9</ele>
        <time>2013-07-17T08:50:45Z</time>
      </trkpt>
      <trkpt lat="48.37718" lon="2.79463">
        <ele>93.39</ele>
        <time>2013-07-17T08:50:49Z</time>
      </trkpt>
      <trkpt lat="48.37739" lon="2.79476">
        <ele>95.79</ele>
        <time>2013-07-17T08:51:04Z</time>
      </trkpt>
      <trkpt lat="48.37756" lon="2.79496">
        <ele>90.98</ele>
        <time>2013-07-17T08:51:23Z</time>
      </trkpt>
      <trkpt lat="48.37782" lon="2.79519">
        <ele>87.62</ele>
        <time>2013-07-17T08:51:38Z</time>
      </trkpt>
      <trkpt lat="48.37792" lon="2.79528">
        <ele>84.25</ele>
        <time>2013-07-17T08:51:52Z</time>
      </trkpt>
      <trkpt lat="48.37814" lon="2.79556">
        <ele>83.29</ele>
        <time>2013-07-17T08:52:08Z</time>
      </trkpt>
      <trkpt lat="48.37821" lon="2.79567">
        <ele>78.97</ele>
        <time>2013-07-17T08:52:22Z</time>
      </trkpt>
      <trkpt lat="48.37841" lon="2.79596">
        <ele>78</ele>
        <time>2013-07-17T08:52:35Z</time>
      </trkpt>
      <trkpt lat="48.37848" lon="2.79606">
        <ele>77.04</ele>
        <time>2013-07-17T08:52:48Z</time>
      </trkpt>
      <trkpt lat="48.37863" lon="2.79632">
        <ele>78</ele>
        <time>2013-07-17T08:53:02Z</time>
      </trkpt>
      <trkpt lat="48.37879" lon="2.79654">
        <ele>82.81</ele>
        <time>2013-07-17T08:53:15Z</time>
      </trkpt>
      <trkpt lat="48.37891" lon="2.79667">
        <ele>79.45</ele>
        <time>2013-07-17T08:53:32Z</time>
      </trkpt>
      <trkpt lat="48.37903" lon="2.79683">
        <ele>75.6</ele>
        <time>2013-07-17T08:53:48Z</time>
      </trkpt>
      <trkpt lat="48.37909" lon="2.79687">
        <ele>76.08</ele>
        <time>2013-07-17T08:54:04Z</time>
      </trkpt>
      <trkpt lat="48.37907" lon="2.79684">
        <ele>75.6</ele>
        <time>2013-07-17T08:54:08Z</time>
      </trkpt>
      <trkpt lat="48.37904" lon="2.79678">
        <ele>73.68</ele>
        <time>2013-07-17T08:54:17Z</time>
      </trkpt>
      <trkpt lat="48.37906" lon="2.79675">
        <ele>73.2</ele>
        <time>2013-07-17T08:54:21Z</time>
      </trkpt>
      <trkpt lat="48.37909" lon="2.79675">
        <ele>71.76</ele>
        <time>2013-07-17T08:54:33Z</time>
      </trkpt>
      <trkpt lat="48.37909" lon="2.79675">
        <ele>71.76</ele>
        <time>2013-07-17T08:54:34Z</time>
      </trkpt>
      <trkpt lat="48.37904" lon="2.79696">
        <ele>70.31</ele>
        <time>2013-07-17T08:54:46Z</time>
      </trkpt>
      <trkpt lat="48.37891" lon="2.79715">
        <ele>65.03</ele>
        <time>2013-07-17T08:55:02Z</time>
      </trkpt>
      <trkpt lat="48.37871" lon="2.79733">
        <ele>65.99</ele>
        <time>2013-07-17T08:55:17Z</time>
      </trkpt>
      <trkpt lat="48.37855" lon="2.79747">
        <ele>67.43</ele>
        <time>2013-07-17T08:55:29Z</time>
      </trkpt>
      <trkpt lat="48.37842" lon="2.79755">
        <ele>68.39</ele>
        <time>2013-07-17T08:55:40Z</time>
      </trkpt>
      <trkpt lat="48.37828" lon="2.79774">
        <ele>70.79</ele>
        <time>2013-07-17T08:55:55Z</time>
      </trkpt>
      <trkpt lat="48.37827" lon="2.79776">
        <ele>70.79</ele>
        <time>2013-07-17T08:55:56Z</time>
      </trkpt>
      <trkpt lat="48.37826" lon="2.79792">
        <ele>71.76</ele>
        <time>2013-07-17T08:56:03Z</time>
      </trkpt>
      <trkpt lat="48.3784" lon="2.79817">
        <ele>69.35</ele>
        <time>2013-07-17T08:56:20Z</time>
      </trkpt>
      <trkpt lat="48.3784" lon="2.79829">
        <ele>69.83</ele>
        <time>2013-07-17T08:56:31Z</time>
      </trkpt>
      <trkpt lat="48.37848" lon="2.7992">
        <ele>116.46</ele>
        <time>2013-07-17T08:57:28Z</time>
      </trkpt>
      <trkpt lat="48.3785" lon="2.79929">
        <ele>68.39</ele>
        <time>2013-07-17T08:57:42Z</time>
      </trkpt>
      <trkpt lat="48.3785" lon="2.79933">
        <ele>62.62</ele>
        <time>2013-07-17T08:57:54Z</time>
      </trkpt>
      <trkpt lat="48.37847" lon="2.79935">
        <ele>60.22</ele>
        <time>2013-07-17T08:58:10Z</time>
      </trkpt>
      <trkpt lat="48.37847" lon="2.79928">
        <ele>57.82</ele>
        <time>2013-07-17T08:58:24Z</time>
      </trkpt>
      <trkpt lat="48.37845" lon="2.79921">
        <ele>57.34</ele>
        <time>2013-07-17T08:58:40Z</time>
      </trkpt>
    </trkseg>
  </trk>
</gpx>